<?xml version="1.0" encoding="UTF-8" standalone="no" ?>
<gpx xmlns="http://www.topografix.com/GPX/1/1" xmlns:xsi="http://www.w3.org/2001/XMLSchema-instance" xsi:schemaLocation="http://www.topografix.com/GPX/1/1 http://www.topografix.com/GPX/1/1/gpx.xsd" version="1.1" creator="VisuGPX - https://www.visugpx.com">
  <metadata>
    <name>Monnières - Saint Vivant</name>
    <desc><![CDATA[Randonnée effectuée le 8 février 2017
L'indice IBP d'effort est de 32, (suivant l'échelle de la FFRP) un score compris entre 26 et 50 correspond au niveau 2 qualifié de "ASSEZ FACILE". La randonnée pédestre présente peu de difficulté physique. Ce niveau correspond aux promenades et petites randonnées.
]]></desc>
  </metadata>
  <trk>
    <name><![CDATA[8 févr. 2017 à 08:47:04]]></name>
    <cmt><![CDATA[8 févr. 2017 à 08:47:04]]></cmt>
    <trkseg>
      <trkpt lat="47.11355" lon="5.45701">
        <ele>262</ele>
        <time>2017-02-08T07:59:59Z</time>
      </trkpt>
      <trkpt lat="47.11338" lon="5.45656">
        <ele>266</ele>
        <time>2017-02-08T08:00:31Z</time>
      </trkpt>
      <trkpt lat="47.11337" lon="5.45647">
        <ele>266</ele>
        <time>2017-02-08T08:00:37Z</time>
      </trkpt>
      <trkpt lat="47.11339" lon="5.4564">
        <ele>266</ele>
        <time>2017-02-08T08:00:42Z</time>
      </trkpt>
      <trkpt lat="47.11343" lon="5.45635">
        <ele>266</ele>
        <time>2017-02-08T08:00:48Z</time>
      </trkpt>
      <trkpt lat="47.11347" lon="5.45631">
        <ele>265</ele>
        <time>2017-02-08T08:00:52Z</time>
      </trkpt>
      <trkpt lat="47.11357" lon="5.45629">
        <ele>264</ele>
        <time>2017-02-08T08:01:01Z</time>
      </trkpt>
      <trkpt lat="47.11371" lon="5.45625">
        <ele>264</ele>
        <time>2017-02-08T08:01:15Z</time>
      </trkpt>
      <trkpt lat="47.11383" lon="5.45615">
        <ele>263</ele>
        <time>2017-02-08T08:01:27Z</time>
      </trkpt>
      <trkpt lat="47.11395" lon="5.45602">
        <ele>263</ele>
        <time>2017-02-08T08:01:39Z</time>
      </trkpt>
      <trkpt lat="47.11404" lon="5.45596">
        <ele>264</ele>
        <time>2017-02-08T08:01:48Z</time>
      </trkpt>
      <trkpt lat="47.11409" lon="5.45595">
        <ele>264</ele>
        <time>2017-02-08T08:01:51Z</time>
      </trkpt>
      <trkpt lat="47.11415" lon="5.45593">
        <ele>264</ele>
        <time>2017-02-08T08:01:55Z</time>
      </trkpt>
      <trkpt lat="47.11418" lon="5.45589">
        <ele>264</ele>
        <time>2017-02-08T08:01:59Z</time>
      </trkpt>
      <trkpt lat="47.1142" lon="5.45582">
        <ele>264</ele>
        <time>2017-02-08T08:02:04Z</time>
      </trkpt>
      <trkpt lat="47.11424" lon="5.45577">
        <ele>264</ele>
        <time>2017-02-08T08:02:09Z</time>
      </trkpt>
      <trkpt lat="47.11429" lon="5.45574">
        <ele>264</ele>
        <time>2017-02-08T08:02:13Z</time>
      </trkpt>
      <trkpt lat="47.11437" lon="5.45566">
        <ele>264</ele>
        <time>2017-02-08T08:02:21Z</time>
      </trkpt>
      <trkpt lat="47.1144" lon="5.45561">
        <ele>264</ele>
        <time>2017-02-08T08:02:26Z</time>
      </trkpt>
      <trkpt lat="47.11448" lon="5.4555">
        <ele>266</ele>
        <time>2017-02-08T08:02:36Z</time>
      </trkpt>
      <trkpt lat="47.11452" lon="5.45547">
        <ele>266</ele>
        <time>2017-02-08T08:02:40Z</time>
      </trkpt>
      <trkpt lat="47.11464" lon="5.45535">
        <ele>267</ele>
        <time>2017-02-08T08:02:52Z</time>
      </trkpt>
      <trkpt lat="47.11468" lon="5.4553">
        <ele>267</ele>
        <time>2017-02-08T08:02:57Z</time>
      </trkpt>
      <trkpt lat="47.11478" lon="5.45512">
        <ele>267</ele>
        <time>2017-02-08T08:03:13Z</time>
      </trkpt>
      <trkpt lat="47.11481" lon="5.45508">
        <ele>268</ele>
        <time>2017-02-08T08:03:17Z</time>
      </trkpt>
      <trkpt lat="47.11486" lon="5.45507">
        <ele>268</ele>
        <time>2017-02-08T08:03:23Z</time>
      </trkpt>
      <trkpt lat="47.11503" lon="5.45491">
        <ele>268</ele>
        <time>2017-02-08T08:03:38Z</time>
      </trkpt>
      <trkpt lat="47.11506" lon="5.45486">
        <ele>268</ele>
        <time>2017-02-08T08:03:43Z</time>
      </trkpt>
      <trkpt lat="47.11518" lon="5.45475">
        <ele>267</ele>
        <time>2017-02-08T08:03:56Z</time>
      </trkpt>
      <trkpt lat="47.11527" lon="5.4547">
        <ele>266</ele>
        <time>2017-02-08T08:04:07Z</time>
      </trkpt>
      <trkpt lat="47.11535" lon="5.45464">
        <ele>267</ele>
        <time>2017-02-08T08:04:20Z</time>
      </trkpt>
      <trkpt lat="47.11545" lon="5.4546">
        <ele>270</ele>
        <time>2017-02-08T08:04:34Z</time>
      </trkpt>
      <trkpt lat="47.11555" lon="5.45457">
        <ele>271</ele>
        <time>2017-02-08T08:04:46Z</time>
      </trkpt>
      <trkpt lat="47.11565" lon="5.45458">
        <ele>272</ele>
        <time>2017-02-08T08:04:53Z</time>
      </trkpt>
      <trkpt lat="47.11584" lon="5.45465">
        <ele>272</ele>
        <time>2017-02-08T08:05:06Z</time>
      </trkpt>
      <trkpt lat="47.11602" lon="5.45474">
        <ele>273</ele>
        <time>2017-02-08T08:05:22Z</time>
      </trkpt>
      <trkpt lat="47.11611" lon="5.45478">
        <ele>273</ele>
        <time>2017-02-08T08:05:30Z</time>
      </trkpt>
      <trkpt lat="47.11621" lon="5.4548">
        <ele>274</ele>
        <time>2017-02-08T08:05:36Z</time>
      </trkpt>
      <trkpt lat="47.11656" lon="5.45503">
        <ele>276</ele>
        <time>2017-02-08T08:06:04Z</time>
      </trkpt>
      <trkpt lat="47.11665" lon="5.45506">
        <ele>275</ele>
        <time>2017-02-08T08:06:12Z</time>
      </trkpt>
      <trkpt lat="47.11674" lon="5.4551">
        <ele>276</ele>
        <time>2017-02-08T08:06:21Z</time>
      </trkpt>
      <trkpt lat="47.11701" lon="5.45524">
        <ele>275</ele>
        <time>2017-02-08T08:06:41Z</time>
      </trkpt>
      <trkpt lat="47.11718" lon="5.45537">
        <ele>274</ele>
        <time>2017-02-08T08:06:59Z</time>
      </trkpt>
      <trkpt lat="47.11727" lon="5.45541">
        <ele>274</ele>
        <time>2017-02-08T08:07:06Z</time>
      </trkpt>
      <trkpt lat="47.11754" lon="5.45557">
        <ele>275</ele>
        <time>2017-02-08T08:07:34Z</time>
      </trkpt>
      <trkpt lat="47.11763" lon="5.4556">
        <ele>275</ele>
        <time>2017-02-08T08:07:42Z</time>
      </trkpt>
      <trkpt lat="47.11773" lon="5.45565">
        <ele>273</ele>
        <time>2017-02-08T08:07:50Z</time>
      </trkpt>
      <trkpt lat="47.1179" lon="5.45577">
        <ele>272</ele>
        <time>2017-02-08T08:08:06Z</time>
      </trkpt>
      <trkpt lat="47.11799" lon="5.45579">
        <ele>272</ele>
        <time>2017-02-08T08:08:13Z</time>
      </trkpt>
      <trkpt lat="47.11827" lon="5.45591">
        <ele>268</ele>
        <time>2017-02-08T08:08:40Z</time>
      </trkpt>
      <trkpt lat="47.11835" lon="5.456">
        <ele>268</ele>
        <time>2017-02-08T08:08:51Z</time>
      </trkpt>
      <trkpt lat="47.11844" lon="5.45607">
        <ele>269</ele>
        <time>2017-02-08T08:08:58Z</time>
      </trkpt>
      <trkpt lat="47.11853" lon="5.45614">
        <ele>269</ele>
        <time>2017-02-08T08:09:06Z</time>
      </trkpt>
      <trkpt lat="47.11861" lon="5.45621">
        <ele>269</ele>
        <time>2017-02-08T08:09:21Z</time>
      </trkpt>
      <trkpt lat="47.11882" lon="5.45632">
        <ele>268</ele>
        <time>2017-02-08T08:09:37Z</time>
      </trkpt>
      <trkpt lat="47.11901" lon="5.4564">
        <ele>269</ele>
        <time>2017-02-08T08:09:50Z</time>
      </trkpt>
      <trkpt lat="47.11912" lon="5.4564">
        <ele>270</ele>
        <time>2017-02-08T08:10:01Z</time>
      </trkpt>
      <trkpt lat="47.11949" lon="5.45652">
        <ele>271</ele>
        <time>2017-02-08T08:10:26Z</time>
      </trkpt>
      <trkpt lat="47.11996" lon="5.45669">
        <ele>269</ele>
        <time>2017-02-08T08:11:07Z</time>
      </trkpt>
      <trkpt lat="47.12005" lon="5.45673">
        <ele>270</ele>
        <time>2017-02-08T08:11:17Z</time>
      </trkpt>
      <trkpt lat="47.12032" lon="5.45685">
        <ele>269</ele>
        <time>2017-02-08T08:11:43Z</time>
      </trkpt>
      <trkpt lat="47.12051" lon="5.45689">
        <ele>268</ele>
        <time>2017-02-08T08:11:56Z</time>
      </trkpt>
      <trkpt lat="47.1208" lon="5.45702">
        <ele>263</ele>
        <time>2017-02-08T08:12:18Z</time>
      </trkpt>
      <trkpt lat="47.12089" lon="5.45704">
        <ele>263</ele>
        <time>2017-02-08T08:12:25Z</time>
      </trkpt>
      <trkpt lat="47.12098" lon="5.45708">
        <ele>263</ele>
        <time>2017-02-08T08:12:34Z</time>
      </trkpt>
      <trkpt lat="47.12108" lon="5.45708">
        <ele>262</ele>
        <time>2017-02-08T08:12:42Z</time>
      </trkpt>
      <trkpt lat="47.12117" lon="5.45701">
        <ele>260</ele>
        <time>2017-02-08T08:12:50Z</time>
      </trkpt>
      <trkpt lat="47.12142" lon="5.45659">
        <ele>254</ele>
        <time>2017-02-08T08:13:29Z</time>
      </trkpt>
      <trkpt lat="47.12173" lon="5.45626">
        <ele>251</ele>
        <time>2017-02-08T08:14:04Z</time>
      </trkpt>
      <trkpt lat="47.12186" lon="5.45614">
        <ele>250</ele>
        <time>2017-02-08T08:14:16Z</time>
      </trkpt>
      <trkpt lat="47.122" lon="5.45608">
        <ele>248</ele>
        <time>2017-02-08T08:14:29Z</time>
      </trkpt>
      <trkpt lat="47.12204" lon="5.45604">
        <ele>247</ele>
        <time>2017-02-08T08:14:33Z</time>
      </trkpt>
      <trkpt lat="47.12208" lon="5.45599">
        <ele>247</ele>
        <time>2017-02-08T08:14:38Z</time>
      </trkpt>
      <trkpt lat="47.12218" lon="5.45592">
        <ele>247</ele>
        <time>2017-02-08T08:14:46Z</time>
      </trkpt>
      <trkpt lat="47.12227" lon="5.45588">
        <ele>247</ele>
        <time>2017-02-08T08:14:54Z</time>
      </trkpt>
      <trkpt lat="47.12236" lon="5.4558">
        <ele>247</ele>
        <time>2017-02-08T08:15:04Z</time>
      </trkpt>
      <trkpt lat="47.1225" lon="5.45568">
        <ele>246</ele>
        <time>2017-02-08T08:15:19Z</time>
      </trkpt>
      <trkpt lat="47.12265" lon="5.45562">
        <ele>245</ele>
        <time>2017-02-08T08:15:33Z</time>
      </trkpt>
      <trkpt lat="47.12269" lon="5.45559">
        <ele>245</ele>
        <time>2017-02-08T08:15:38Z</time>
      </trkpt>
      <trkpt lat="47.12273" lon="5.45556">
        <ele>246</ele>
        <time>2017-02-08T08:15:44Z</time>
      </trkpt>
      <trkpt lat="47.12282" lon="5.4555">
        <ele>246</ele>
        <time>2017-02-08T08:15:51Z</time>
      </trkpt>
      <trkpt lat="47.12287" lon="5.45547">
        <ele>246</ele>
        <time>2017-02-08T08:15:55Z</time>
      </trkpt>
      <trkpt lat="47.12293" lon="5.45547">
        <ele>245</ele>
        <time>2017-02-08T08:15:59Z</time>
      </trkpt>
      <trkpt lat="47.12298" lon="5.45545">
        <ele>244</ele>
        <time>2017-02-08T08:16:03Z</time>
      </trkpt>
      <trkpt lat="47.12303" lon="5.45541">
        <ele>244</ele>
        <time>2017-02-08T08:16:07Z</time>
      </trkpt>
      <trkpt lat="47.12308" lon="5.45539">
        <ele>244</ele>
        <time>2017-02-08T08:16:11Z</time>
      </trkpt>
      <trkpt lat="47.12312" lon="5.45534">
        <ele>244</ele>
        <time>2017-02-08T08:16:15Z</time>
      </trkpt>
      <trkpt lat="47.12326" lon="5.45524">
        <ele>244</ele>
        <time>2017-02-08T08:16:25Z</time>
      </trkpt>
      <trkpt lat="47.12331" lon="5.45522">
        <ele>244</ele>
        <time>2017-02-08T08:16:29Z</time>
      </trkpt>
      <trkpt lat="47.12336" lon="5.4552">
        <ele>244</ele>
        <time>2017-02-08T08:16:34Z</time>
      </trkpt>
      <trkpt lat="47.1234" lon="5.45517">
        <ele>243</ele>
        <time>2017-02-08T08:16:38Z</time>
      </trkpt>
      <trkpt lat="47.12345" lon="5.45515">
        <ele>243</ele>
        <time>2017-02-08T08:16:43Z</time>
      </trkpt>
      <trkpt lat="47.12349" lon="5.45513">
        <ele>242</ele>
        <time>2017-02-08T08:16:47Z</time>
      </trkpt>
      <trkpt lat="47.12353" lon="5.45508">
        <ele>242</ele>
        <time>2017-02-08T08:16:51Z</time>
      </trkpt>
      <trkpt lat="47.12367" lon="5.45485">
        <ele>241</ele>
        <time>2017-02-08T08:17:07Z</time>
      </trkpt>
      <trkpt lat="47.1239" lon="5.45445">
        <ele>236</ele>
        <time>2017-02-08T08:17:38Z</time>
      </trkpt>
      <trkpt lat="47.12398" lon="5.45434">
        <ele>235</ele>
        <time>2017-02-08T08:17:46Z</time>
      </trkpt>
      <trkpt lat="47.1242" lon="5.45416">
        <ele>233</ele>
        <time>2017-02-08T08:18:03Z</time>
      </trkpt>
      <trkpt lat="47.12425" lon="5.45412">
        <ele>232</ele>
        <time>2017-02-08T08:18:07Z</time>
      </trkpt>
      <trkpt lat="47.12432" lon="5.45402">
        <ele>231</ele>
        <time>2017-02-08T08:18:15Z</time>
      </trkpt>
      <trkpt lat="47.12439" lon="5.45389">
        <ele>230</ele>
        <time>2017-02-08T08:18:22Z</time>
      </trkpt>
      <trkpt lat="47.12448" lon="5.45371">
        <ele>231</ele>
        <time>2017-02-08T08:18:33Z</time>
      </trkpt>
      <trkpt lat="47.12454" lon="5.45359">
        <ele>230</ele>
        <time>2017-02-08T08:18:42Z</time>
      </trkpt>
      <trkpt lat="47.12483" lon="5.45316">
        <ele>227</ele>
        <time>2017-02-08T08:19:14Z</time>
      </trkpt>
      <trkpt lat="47.1249" lon="5.45306">
        <ele>225</ele>
        <time>2017-02-08T08:19:22Z</time>
      </trkpt>
      <trkpt lat="47.12494" lon="5.45301">
        <ele>225</ele>
        <time>2017-02-08T08:19:27Z</time>
      </trkpt>
      <trkpt lat="47.12508" lon="5.45285">
        <ele>223</ele>
        <time>2017-02-08T08:19:58Z</time>
      </trkpt>
      <trkpt lat="47.12511" lon="5.45277">
        <ele>223</ele>
        <time>2017-02-08T08:20:02Z</time>
      </trkpt>
      <trkpt lat="47.12513" lon="5.4527">
        <ele>223</ele>
        <time>2017-02-08T08:20:06Z</time>
      </trkpt>
      <trkpt lat="47.12525" lon="5.45238">
        <ele>222</ele>
        <time>2017-02-08T08:20:28Z</time>
      </trkpt>
      <trkpt lat="47.12544" lon="5.45187">
        <ele>218</ele>
        <time>2017-02-08T08:21:00Z</time>
      </trkpt>
      <trkpt lat="47.12546" lon="5.45179">
        <ele>217</ele>
        <time>2017-02-08T08:21:05Z</time>
      </trkpt>
      <trkpt lat="47.12558" lon="5.45132">
        <ele>217</ele>
        <time>2017-02-08T08:21:36Z</time>
      </trkpt>
      <trkpt lat="47.12568" lon="5.45082">
        <ele>215</ele>
        <time>2017-02-08T08:22:09Z</time>
      </trkpt>
      <trkpt lat="47.12571" lon="5.45069">
        <ele>215</ele>
        <time>2017-02-08T08:22:17Z</time>
      </trkpt>
      <trkpt lat="47.12574" lon="5.45061">
        <ele>214</ele>
        <time>2017-02-08T08:22:21Z</time>
      </trkpt>
      <trkpt lat="47.12577" lon="5.45054">
        <ele>214</ele>
        <time>2017-02-08T08:22:25Z</time>
      </trkpt>
      <trkpt lat="47.12578" lon="5.45046">
        <ele>214</ele>
        <time>2017-02-08T08:22:29Z</time>
      </trkpt>
      <trkpt lat="47.12578" lon="5.45039">
        <ele>215</ele>
        <time>2017-02-08T08:22:34Z</time>
      </trkpt>
      <trkpt lat="47.1258" lon="5.45032">
        <ele>215</ele>
        <time>2017-02-08T08:22:38Z</time>
      </trkpt>
      <trkpt lat="47.12583" lon="5.45026">
        <ele>216</ele>
        <time>2017-02-08T08:22:44Z</time>
      </trkpt>
      <trkpt lat="47.12586" lon="5.45019">
        <ele>215</ele>
        <time>2017-02-08T08:22:49Z</time>
      </trkpt>
      <trkpt lat="47.1259" lon="5.45007">
        <ele>215</ele>
        <time>2017-02-08T08:22:57Z</time>
      </trkpt>
      <trkpt lat="47.12603" lon="5.4495">
        <ele>213</ele>
        <time>2017-02-08T08:23:26Z</time>
      </trkpt>
      <trkpt lat="47.12606" lon="5.44934">
        <ele>214</ele>
        <time>2017-02-08T08:23:34Z</time>
      </trkpt>
      <trkpt lat="47.12612" lon="5.44912">
        <ele>216</ele>
        <time>2017-02-08T08:23:46Z</time>
      </trkpt>
      <trkpt lat="47.12617" lon="5.44898">
        <ele>216</ele>
        <time>2017-02-08T08:23:54Z</time>
      </trkpt>
      <trkpt lat="47.12621" lon="5.44884">
        <ele>217</ele>
        <time>2017-02-08T08:24:02Z</time>
      </trkpt>
      <trkpt lat="47.12628" lon="5.44863">
        <ele>217</ele>
        <time>2017-02-08T08:24:14Z</time>
      </trkpt>
      <trkpt lat="47.12636" lon="5.44835">
        <ele>217</ele>
        <time>2017-02-08T08:24:30Z</time>
      </trkpt>
      <trkpt lat="47.12652" lon="5.44779">
        <ele>215</ele>
        <time>2017-02-08T08:25:02Z</time>
      </trkpt>
      <trkpt lat="47.12654" lon="5.44765">
        <ele>215</ele>
        <time>2017-02-08T08:25:10Z</time>
      </trkpt>
      <trkpt lat="47.12655" lon="5.44758">
        <ele>214</ele>
        <time>2017-02-08T08:25:14Z</time>
      </trkpt>
      <trkpt lat="47.12662" lon="5.44699">
        <ele>215</ele>
        <time>2017-02-08T08:25:45Z</time>
      </trkpt>
      <trkpt lat="47.12665" lon="5.4467">
        <ele>215</ele>
        <time>2017-02-08T08:26:01Z</time>
      </trkpt>
      <trkpt lat="47.12669" lon="5.44654">
        <ele>215</ele>
        <time>2017-02-08T08:26:09Z</time>
      </trkpt>
      <trkpt lat="47.12674" lon="5.44633">
        <ele>214</ele>
        <time>2017-02-08T08:26:22Z</time>
      </trkpt>
      <trkpt lat="47.12675" lon="5.44618">
        <ele>214</ele>
        <time>2017-02-08T08:26:30Z</time>
      </trkpt>
      <trkpt lat="47.12683" lon="5.44568">
        <ele>213</ele>
        <time>2017-02-08T08:27:00Z</time>
      </trkpt>
      <trkpt lat="47.12692" lon="5.4451">
        <ele>212</ele>
        <time>2017-02-08T08:27:33Z</time>
      </trkpt>
      <trkpt lat="47.12694" lon="5.44495">
        <ele>213</ele>
        <time>2017-02-08T08:27:41Z</time>
      </trkpt>
      <trkpt lat="47.12697" lon="5.44473">
        <ele>212</ele>
        <time>2017-02-08T08:27:53Z</time>
      </trkpt>
      <trkpt lat="47.12702" lon="5.44437">
        <ele>211</ele>
        <time>2017-02-08T08:28:13Z</time>
      </trkpt>
      <trkpt lat="47.12703" lon="5.4443">
        <ele>211</ele>
        <time>2017-02-08T08:28:17Z</time>
      </trkpt>
      <trkpt lat="47.12706" lon="5.44406">
        <ele>211</ele>
        <time>2017-02-08T08:28:29Z</time>
      </trkpt>
      <trkpt lat="47.12707" lon="5.44398">
        <ele>212</ele>
        <time>2017-02-08T08:28:33Z</time>
      </trkpt>
      <trkpt lat="47.12708" lon="5.44391">
        <ele>212</ele>
        <time>2017-02-08T08:28:37Z</time>
      </trkpt>
      <trkpt lat="47.1272" lon="5.44334">
        <ele>212</ele>
        <time>2017-02-08T08:29:09Z</time>
      </trkpt>
      <trkpt lat="47.12722" lon="5.44327">
        <ele>212</ele>
        <time>2017-02-08T08:29:13Z</time>
      </trkpt>
      <trkpt lat="47.12723" lon="5.4432">
        <ele>212</ele>
        <time>2017-02-08T08:29:16Z</time>
      </trkpt>
      <trkpt lat="47.12728" lon="5.443">
        <ele>212</ele>
        <time>2017-02-08T08:29:27Z</time>
      </trkpt>
      <trkpt lat="47.12736" lon="5.44269">
        <ele>213</ele>
        <time>2017-02-08T08:29:43Z</time>
      </trkpt>
      <trkpt lat="47.12754" lon="5.44216">
        <ele>209</ele>
        <time>2017-02-08T08:30:15Z</time>
      </trkpt>
      <trkpt lat="47.12762" lon="5.44198">
        <ele>207</ele>
        <time>2017-02-08T08:30:27Z</time>
      </trkpt>
      <trkpt lat="47.12769" lon="5.44178">
        <ele>207</ele>
        <time>2017-02-08T08:30:39Z</time>
      </trkpt>
      <trkpt lat="47.12784" lon="5.44131">
        <ele>208</ele>
        <time>2017-02-08T08:31:07Z</time>
      </trkpt>
      <trkpt lat="47.12786" lon="5.44125">
        <ele>208</ele>
        <time>2017-02-08T08:31:10Z</time>
      </trkpt>
      <trkpt lat="47.12788" lon="5.44117">
        <ele>208</ele>
        <time>2017-02-08T08:31:14Z</time>
      </trkpt>
      <trkpt lat="47.12795" lon="5.44079">
        <ele>210</ele>
        <time>2017-02-08T08:31:34Z</time>
      </trkpt>
      <trkpt lat="47.12797" lon="5.44071">
        <ele>210</ele>
        <time>2017-02-08T08:31:38Z</time>
      </trkpt>
      <trkpt lat="47.12806" lon="5.44011">
        <ele>211</ele>
        <time>2017-02-08T08:32:10Z</time>
      </trkpt>
      <trkpt lat="47.12809" lon="5.43996">
        <ele>211</ele>
        <time>2017-02-08T08:32:18Z</time>
      </trkpt>
      <trkpt lat="47.1281" lon="5.43989">
        <ele>210</ele>
        <time>2017-02-08T08:32:22Z</time>
      </trkpt>
      <trkpt lat="47.12817" lon="5.43967">
        <ele>210</ele>
        <time>2017-02-08T08:32:34Z</time>
      </trkpt>
      <trkpt lat="47.1282" lon="5.4396">
        <ele>210</ele>
        <time>2017-02-08T08:32:38Z</time>
      </trkpt>
      <trkpt lat="47.12823" lon="5.43955">
        <ele>209</ele>
        <time>2017-02-08T08:32:42Z</time>
      </trkpt>
      <trkpt lat="47.12825" lon="5.43949">
        <ele>209</ele>
        <time>2017-02-08T08:32:46Z</time>
      </trkpt>
      <trkpt lat="47.12844" lon="5.43911">
        <ele>208</ele>
        <time>2017-02-08T08:33:10Z</time>
      </trkpt>
      <trkpt lat="47.12847" lon="5.43905">
        <ele>208</ele>
        <time>2017-02-08T08:33:14Z</time>
      </trkpt>
      <trkpt lat="47.12854" lon="5.43894">
        <ele>208</ele>
        <time>2017-02-08T08:33:22Z</time>
      </trkpt>
      <trkpt lat="47.12858" lon="5.43889">
        <ele>208</ele>
        <time>2017-02-08T08:33:26Z</time>
      </trkpt>
      <trkpt lat="47.12866" lon="5.43878">
        <ele>208</ele>
        <time>2017-02-08T08:33:34Z</time>
      </trkpt>
      <trkpt lat="47.12881" lon="5.43854">
        <ele>208</ele>
        <time>2017-02-08T08:33:50Z</time>
      </trkpt>
      <trkpt lat="47.12884" lon="5.43848">
        <ele>208</ele>
        <time>2017-02-08T08:33:54Z</time>
      </trkpt>
      <trkpt lat="47.12893" lon="5.43822">
        <ele>207</ele>
        <time>2017-02-08T08:34:10Z</time>
      </trkpt>
      <trkpt lat="47.12896" lon="5.43792">
        <ele>208</ele>
        <time>2017-02-08T08:34:26Z</time>
      </trkpt>
      <trkpt lat="47.12897" lon="5.43763">
        <ele>208</ele>
        <time>2017-02-08T08:34:43Z</time>
      </trkpt>
      <trkpt lat="47.129" lon="5.43739">
        <ele>210</ele>
        <time>2017-02-08T08:34:55Z</time>
      </trkpt>
      <trkpt lat="47.12902" lon="5.43732">
        <ele>210</ele>
        <time>2017-02-08T08:34:58Z</time>
      </trkpt>
      <trkpt lat="47.12903" lon="5.43716">
        <ele>211</ele>
        <time>2017-02-08T08:35:06Z</time>
      </trkpt>
      <trkpt lat="47.12902" lon="5.43709">
        <ele>211</ele>
        <time>2017-02-08T08:35:09Z</time>
      </trkpt>
      <trkpt lat="47.12901" lon="5.43693">
        <ele>212</ele>
        <time>2017-02-08T08:35:17Z</time>
      </trkpt>
      <trkpt lat="47.12901" lon="5.43686">
        <ele>212</ele>
        <time>2017-02-08T08:35:21Z</time>
      </trkpt>
      <trkpt lat="47.12902" lon="5.43678">
        <ele>212</ele>
        <time>2017-02-08T08:35:25Z</time>
      </trkpt>
      <trkpt lat="47.12904" lon="5.43663">
        <ele>213</ele>
        <time>2017-02-08T08:35:34Z</time>
      </trkpt>
      <trkpt lat="47.12905" lon="5.43641">
        <ele>212</ele>
        <time>2017-02-08T08:35:46Z</time>
      </trkpt>
      <trkpt lat="47.12906" lon="5.43626">
        <ele>212</ele>
        <time>2017-02-08T08:35:56Z</time>
      </trkpt>
      <trkpt lat="47.12907" lon="5.43619">
        <ele>211</ele>
        <time>2017-02-08T08:36:00Z</time>
      </trkpt>
      <trkpt lat="47.12909" lon="5.43604">
        <ele>210</ele>
        <time>2017-02-08T08:36:09Z</time>
      </trkpt>
      <trkpt lat="47.12911" lon="5.43596">
        <ele>210</ele>
        <time>2017-02-08T08:36:14Z</time>
      </trkpt>
      <trkpt lat="47.12912" lon="5.4359">
        <ele>210</ele>
        <time>2017-02-08T08:36:19Z</time>
      </trkpt>
      <trkpt lat="47.12915" lon="5.43576">
        <ele>209</ele>
        <time>2017-02-08T08:36:30Z</time>
      </trkpt>
      <trkpt lat="47.12915" lon="5.43561">
        <ele>208</ele>
        <time>2017-02-08T08:36:39Z</time>
      </trkpt>
      <trkpt lat="47.12918" lon="5.43525">
        <ele>209</ele>
        <time>2017-02-08T08:37:01Z</time>
      </trkpt>
      <trkpt lat="47.12919" lon="5.43503">
        <ele>209</ele>
        <time>2017-02-08T08:37:13Z</time>
      </trkpt>
      <trkpt lat="47.12919" lon="5.43495">
        <ele>209</ele>
        <time>2017-02-08T08:37:17Z</time>
      </trkpt>
      <trkpt lat="47.12919" lon="5.43479">
        <ele>211</ele>
        <time>2017-02-08T08:37:26Z</time>
      </trkpt>
      <trkpt lat="47.1292" lon="5.43464">
        <ele>211</ele>
        <time>2017-02-08T08:37:33Z</time>
      </trkpt>
      <trkpt lat="47.12922" lon="5.43456">
        <ele>212</ele>
        <time>2017-02-08T08:37:37Z</time>
      </trkpt>
      <trkpt lat="47.12923" lon="5.43449">
        <ele>212</ele>
        <time>2017-02-08T08:37:41Z</time>
      </trkpt>
      <trkpt lat="47.12927" lon="5.43435">
        <ele>212</ele>
        <time>2017-02-08T08:37:50Z</time>
      </trkpt>
      <trkpt lat="47.12929" lon="5.43427">
        <ele>212</ele>
        <time>2017-02-08T08:37:54Z</time>
      </trkpt>
      <trkpt lat="47.12929" lon="5.43419">
        <ele>212</ele>
        <time>2017-02-08T08:37:58Z</time>
      </trkpt>
      <trkpt lat="47.12935" lon="5.43398">
        <ele>211</ele>
        <time>2017-02-08T08:38:10Z</time>
      </trkpt>
      <trkpt lat="47.12933" lon="5.43379">
        <ele>211</ele>
        <time>2017-02-08T08:38:19Z</time>
      </trkpt>
      <trkpt lat="47.12933" lon="5.43365">
        <ele>213</ele>
        <time>2017-02-08T08:38:26Z</time>
      </trkpt>
      <trkpt lat="47.12933" lon="5.43358">
        <ele>213</ele>
        <time>2017-02-08T08:38:29Z</time>
      </trkpt>
      <trkpt lat="47.12936" lon="5.43342">
        <ele>213</ele>
        <time>2017-02-08T08:38:37Z</time>
      </trkpt>
      <trkpt lat="47.12935" lon="5.43334">
        <ele>213</ele>
        <time>2017-02-08T08:38:41Z</time>
      </trkpt>
      <trkpt lat="47.12937" lon="5.43291">
        <ele>212</ele>
        <time>2017-02-08T08:39:01Z</time>
      </trkpt>
      <trkpt lat="47.12937" lon="5.43282">
        <ele>212</ele>
        <time>2017-02-08T08:39:05Z</time>
      </trkpt>
      <trkpt lat="47.12941" lon="5.43245">
        <ele>212</ele>
        <time>2017-02-08T08:39:26Z</time>
      </trkpt>
      <trkpt lat="47.12943" lon="5.43238">
        <ele>213</ele>
        <time>2017-02-08T08:39:29Z</time>
      </trkpt>
      <trkpt lat="47.12945" lon="5.43222">
        <ele>214</ele>
        <time>2017-02-08T08:39:38Z</time>
      </trkpt>
      <trkpt lat="47.12947" lon="5.43208">
        <ele>214</ele>
        <time>2017-02-08T08:39:46Z</time>
      </trkpt>
      <trkpt lat="47.12949" lon="5.43184">
        <ele>213</ele>
        <time>2017-02-08T08:39:58Z</time>
      </trkpt>
      <trkpt lat="47.1295" lon="5.43177">
        <ele>213</ele>
        <time>2017-02-08T08:40:02Z</time>
      </trkpt>
      <trkpt lat="47.12952" lon="5.43171">
        <ele>212</ele>
        <time>2017-02-08T08:40:06Z</time>
      </trkpt>
      <trkpt lat="47.12951" lon="5.43157">
        <ele>212</ele>
        <time>2017-02-08T08:40:13Z</time>
      </trkpt>
      <trkpt lat="47.12951" lon="5.43149">
        <ele>212</ele>
        <time>2017-02-08T08:40:17Z</time>
      </trkpt>
      <trkpt lat="47.12948" lon="5.43132">
        <ele>211</ele>
        <time>2017-02-08T08:40:25Z</time>
      </trkpt>
      <trkpt lat="47.12942" lon="5.43119">
        <ele>210</ele>
        <time>2017-02-08T08:40:33Z</time>
      </trkpt>
      <trkpt lat="47.1294" lon="5.43112">
        <ele>210</ele>
        <time>2017-02-08T08:40:37Z</time>
      </trkpt>
      <trkpt lat="47.1294" lon="5.43104">
        <ele>211</ele>
        <time>2017-02-08T08:40:42Z</time>
      </trkpt>
      <trkpt lat="47.12936" lon="5.4309">
        <ele>208</ele>
        <time>2017-02-08T08:40:56Z</time>
      </trkpt>
      <trkpt lat="47.12932" lon="5.43075">
        <ele>208</ele>
        <time>2017-02-08T08:41:03Z</time>
      </trkpt>
      <trkpt lat="47.12922" lon="5.4304">
        <ele>207</ele>
        <time>2017-02-08T08:41:25Z</time>
      </trkpt>
      <trkpt lat="47.12914" lon="5.43011">
        <ele>208</ele>
        <time>2017-02-08T08:41:41Z</time>
      </trkpt>
      <trkpt lat="47.12911" lon="5.42993">
        <ele>207</ele>
        <time>2017-02-08T08:41:58Z</time>
      </trkpt>
      <trkpt lat="47.12906" lon="5.42972">
        <ele>208</ele>
        <time>2017-02-08T08:42:07Z</time>
      </trkpt>
      <trkpt lat="47.12905" lon="5.42964">
        <ele>208</ele>
        <time>2017-02-08T08:42:11Z</time>
      </trkpt>
      <trkpt lat="47.12904" lon="5.42956">
        <ele>208</ele>
        <time>2017-02-08T08:42:16Z</time>
      </trkpt>
      <trkpt lat="47.12898" lon="5.42936">
        <ele>209</ele>
        <time>2017-02-08T08:42:28Z</time>
      </trkpt>
      <trkpt lat="47.12897" lon="5.42929">
        <ele>208</ele>
        <time>2017-02-08T08:42:32Z</time>
      </trkpt>
      <trkpt lat="47.12895" lon="5.42914">
        <ele>209</ele>
        <time>2017-02-08T08:42:41Z</time>
      </trkpt>
      <trkpt lat="47.12894" lon="5.42907">
        <ele>209</ele>
        <time>2017-02-08T08:42:46Z</time>
      </trkpt>
      <trkpt lat="47.12894" lon="5.42899">
        <ele>210</ele>
        <time>2017-02-08T08:42:51Z</time>
      </trkpt>
      <trkpt lat="47.12892" lon="5.42892">
        <ele>209</ele>
        <time>2017-02-08T08:42:56Z</time>
      </trkpt>
      <trkpt lat="47.1289" lon="5.42886">
        <ele>209</ele>
        <time>2017-02-08T08:43:00Z</time>
      </trkpt>
      <trkpt lat="47.12883" lon="5.4286">
        <ele>210</ele>
        <time>2017-02-08T08:43:16Z</time>
      </trkpt>
      <trkpt lat="47.12881" lon="5.42852">
        <ele>210</ele>
        <time>2017-02-08T08:43:20Z</time>
      </trkpt>
      <trkpt lat="47.12875" lon="5.42832">
        <ele>209</ele>
        <time>2017-02-08T08:43:32Z</time>
      </trkpt>
      <trkpt lat="47.12869" lon="5.42806">
        <ele>208</ele>
        <time>2017-02-08T08:43:48Z</time>
      </trkpt>
      <trkpt lat="47.12863" lon="5.42779">
        <ele>210</ele>
        <time>2017-02-08T08:44:02Z</time>
      </trkpt>
      <trkpt lat="47.12852" lon="5.42731">
        <ele>210</ele>
        <time>2017-02-08T08:44:32Z</time>
      </trkpt>
      <trkpt lat="47.12851" lon="5.42722">
        <ele>210</ele>
        <time>2017-02-08T08:44:36Z</time>
      </trkpt>
      <trkpt lat="47.12853" lon="5.42715">
        <ele>209</ele>
        <time>2017-02-08T08:44:40Z</time>
      </trkpt>
      <trkpt lat="47.12864" lon="5.42711">
        <ele>207</ele>
        <time>2017-02-08T08:44:48Z</time>
      </trkpt>
      <trkpt lat="47.12869" lon="5.4271">
        <ele>205</ele>
        <time>2017-02-08T08:44:52Z</time>
      </trkpt>
      <trkpt lat="47.1289" lon="5.42711">
        <ele>205</ele>
        <time>2017-02-08T08:45:08Z</time>
      </trkpt>
      <trkpt lat="47.12895" lon="5.4271">
        <ele>205</ele>
        <time>2017-02-08T08:45:12Z</time>
      </trkpt>
      <trkpt lat="47.12905" lon="5.42709">
        <ele>205</ele>
        <time>2017-02-08T08:45:21Z</time>
      </trkpt>
      <trkpt lat="47.1291" lon="5.4271">
        <ele>205</ele>
        <time>2017-02-08T08:45:29Z</time>
      </trkpt>
      <trkpt lat="47.12921" lon="5.42709">
        <ele>204</ele>
        <time>2017-02-08T08:45:38Z</time>
      </trkpt>
      <trkpt lat="47.12926" lon="5.42709">
        <ele>204</ele>
        <time>2017-02-08T08:45:43Z</time>
      </trkpt>
      <trkpt lat="47.12941" lon="5.42708">
        <ele>205</ele>
        <time>2017-02-08T08:45:55Z</time>
      </trkpt>
      <trkpt lat="47.12945" lon="5.42706">
        <ele>205</ele>
        <time>2017-02-08T08:46:01Z</time>
      </trkpt>
      <trkpt lat="47.1295" lon="5.42705">
        <ele>205</ele>
        <time>2017-02-08T08:46:06Z</time>
      </trkpt>
      <trkpt lat="47.12955" lon="5.42706">
        <ele>206</ele>
        <time>2017-02-08T08:46:10Z</time>
      </trkpt>
      <trkpt lat="47.1297" lon="5.42705">
        <ele>205</ele>
        <time>2017-02-08T08:46:25Z</time>
      </trkpt>
      <trkpt lat="47.12976" lon="5.42704">
        <ele>205</ele>
        <time>2017-02-08T08:46:44Z</time>
      </trkpt>
      <trkpt lat="47.12986" lon="5.42707">
        <ele>204</ele>
        <time>2017-02-08T08:47:16Z</time>
      </trkpt>
      <trkpt lat="47.12991" lon="5.42705">
        <ele>203</ele>
        <time>2017-02-08T08:47:21Z</time>
      </trkpt>
      <trkpt lat="47.12996" lon="5.42705">
        <ele>203</ele>
        <time>2017-02-08T08:47:25Z</time>
      </trkpt>
      <trkpt lat="47.13005" lon="5.42703">
        <ele>205</ele>
        <time>2017-02-08T08:47:35Z</time>
      </trkpt>
      <trkpt lat="47.13024" lon="5.42701">
        <ele>206</ele>
        <time>2017-02-08T08:47:52Z</time>
      </trkpt>
      <trkpt lat="47.13032" lon="5.42698">
        <ele>207</ele>
        <time>2017-02-08T08:48:17Z</time>
      </trkpt>
      <trkpt lat="47.1305" lon="5.42698">
        <ele>203</ele>
        <time>2017-02-08T08:48:44Z</time>
      </trkpt>
      <trkpt lat="47.13056" lon="5.42694">
        <ele>203</ele>
        <time>2017-02-08T08:48:50Z</time>
      </trkpt>
      <trkpt lat="47.13061" lon="5.42693">
        <ele>202</ele>
        <time>2017-02-08T08:48:54Z</time>
      </trkpt>
      <trkpt lat="47.13071" lon="5.42694">
        <ele>202</ele>
        <time>2017-02-08T08:49:02Z</time>
      </trkpt>
      <trkpt lat="47.13076" lon="5.42694">
        <ele>203</ele>
        <time>2017-02-08T08:49:07Z</time>
      </trkpt>
      <trkpt lat="47.13082" lon="5.42695">
        <ele>203</ele>
        <time>2017-02-08T08:49:11Z</time>
      </trkpt>
      <trkpt lat="47.13086" lon="5.42696">
        <ele>202</ele>
        <time>2017-02-08T08:49:15Z</time>
      </trkpt>
      <trkpt lat="47.13091" lon="5.42698">
        <ele>202</ele>
        <time>2017-02-08T08:49:20Z</time>
      </trkpt>
      <trkpt lat="47.13102" lon="5.42708">
        <ele>202</ele>
        <time>2017-02-08T08:52:20Z</time>
      </trkpt>
      <trkpt lat="47.13097" lon="5.42723">
        <ele>201</ele>
        <time>2017-02-08T08:52:40Z</time>
      </trkpt>
      <trkpt lat="47.13099" lon="5.42736">
        <ele>201</ele>
        <time>2017-02-08T08:52:59Z</time>
      </trkpt>
      <trkpt lat="47.13107" lon="5.42743">
        <ele>201</ele>
        <time>2017-02-08T08:53:11Z</time>
      </trkpt>
      <trkpt lat="47.13134" lon="5.42766">
        <ele>204</ele>
        <time>2017-02-08T08:53:43Z</time>
      </trkpt>
      <trkpt lat="47.13141" lon="5.42776">
        <ele>204</ele>
        <time>2017-02-08T08:53:50Z</time>
      </trkpt>
      <trkpt lat="47.13158" lon="5.42786">
        <ele>206</ele>
        <time>2017-02-08T08:54:09Z</time>
      </trkpt>
      <trkpt lat="47.13184" lon="5.42805">
        <ele>205</ele>
        <time>2017-02-08T08:54:42Z</time>
      </trkpt>
      <trkpt lat="47.13194" lon="5.42811">
        <ele>205</ele>
        <time>2017-02-08T08:54:50Z</time>
      </trkpt>
      <trkpt lat="47.132" lon="5.4282">
        <ele>204</ele>
        <time>2017-02-08T08:54:55Z</time>
      </trkpt>
      <trkpt lat="47.13209" lon="5.42825">
        <ele>205</ele>
        <time>2017-02-08T08:55:04Z</time>
      </trkpt>
      <trkpt lat="47.13226" lon="5.42838">
        <ele>204</ele>
        <time>2017-02-08T08:55:22Z</time>
      </trkpt>
      <trkpt lat="47.13235" lon="5.42839">
        <ele>203</ele>
        <time>2017-02-08T08:55:34Z</time>
      </trkpt>
      <trkpt lat="47.13259" lon="5.42861">
        <ele>204</ele>
        <time>2017-02-08T08:55:54Z</time>
      </trkpt>
      <trkpt lat="47.13268" lon="5.42867">
        <ele>204</ele>
        <time>2017-02-08T08:56:08Z</time>
      </trkpt>
      <trkpt lat="47.13284" lon="5.42883">
        <ele>203</ele>
        <time>2017-02-08T08:56:23Z</time>
      </trkpt>
      <trkpt lat="47.13302" lon="5.42894">
        <ele>203</ele>
        <time>2017-02-08T08:56:38Z</time>
      </trkpt>
      <trkpt lat="47.13319" lon="5.42906">
        <ele>204</ele>
        <time>2017-02-08T08:56:52Z</time>
      </trkpt>
      <trkpt lat="47.13327" lon="5.42912">
        <ele>203</ele>
        <time>2017-02-08T08:57:03Z</time>
      </trkpt>
      <trkpt lat="47.13354" lon="5.4293">
        <ele>204</ele>
        <time>2017-02-08T08:57:32Z</time>
      </trkpt>
      <trkpt lat="47.13361" lon="5.42938">
        <ele>202</ele>
        <time>2017-02-08T08:57:41Z</time>
      </trkpt>
      <trkpt lat="47.13369" lon="5.42946">
        <ele>201</ele>
        <time>2017-02-08T08:57:49Z</time>
      </trkpt>
      <trkpt lat="47.13378" lon="5.42952">
        <ele>201</ele>
        <time>2017-02-08T08:57:57Z</time>
      </trkpt>
      <trkpt lat="47.13396" lon="5.42961">
        <ele>202</ele>
        <time>2017-02-08T08:58:14Z</time>
      </trkpt>
      <trkpt lat="47.13404" lon="5.42967">
        <ele>201</ele>
        <time>2017-02-08T08:59:10Z</time>
      </trkpt>
      <trkpt lat="47.13413" lon="5.42972">
        <ele>199</ele>
        <time>2017-02-08T09:00:36Z</time>
      </trkpt>
      <trkpt lat="47.13421" lon="5.42979">
        <ele>199</ele>
        <time>2017-02-08T09:00:48Z</time>
      </trkpt>
      <trkpt lat="47.1343" lon="5.42983">
        <ele>198</ele>
        <time>2017-02-08T09:00:58Z</time>
      </trkpt>
      <trkpt lat="47.13439" lon="5.42986">
        <ele>198</ele>
        <time>2017-02-08T09:01:07Z</time>
      </trkpt>
      <trkpt lat="47.13449" lon="5.42989">
        <ele>197</ele>
        <time>2017-02-08T09:01:21Z</time>
      </trkpt>
      <trkpt lat="47.13458" lon="5.42989">
        <ele>197</ele>
        <time>2017-02-08T09:01:31Z</time>
      </trkpt>
      <trkpt lat="47.13468" lon="5.4299">
        <ele>198</ele>
        <time>2017-02-08T09:01:44Z</time>
      </trkpt>
      <trkpt lat="47.13477" lon="5.42994">
        <ele>199</ele>
        <time>2017-02-08T09:01:52Z</time>
      </trkpt>
      <trkpt lat="47.13484" lon="5.43">
        <ele>203</ele>
        <time>2017-02-08T09:01:58Z</time>
      </trkpt>
      <trkpt lat="47.13488" lon="5.43005">
        <ele>204</ele>
        <time>2017-02-08T09:02:03Z</time>
      </trkpt>
      <trkpt lat="47.13505" lon="5.43019">
        <ele>205</ele>
        <time>2017-02-08T09:02:24Z</time>
      </trkpt>
      <trkpt lat="47.13526" lon="5.43039">
        <ele>203</ele>
        <time>2017-02-08T09:02:50Z</time>
      </trkpt>
      <trkpt lat="47.13531" lon="5.43044">
        <ele>203</ele>
        <time>2017-02-08T09:02:55Z</time>
      </trkpt>
      <trkpt lat="47.13535" lon="5.43048">
        <ele>203</ele>
        <time>2017-02-08T09:03:00Z</time>
      </trkpt>
      <trkpt lat="47.13544" lon="5.43055">
        <ele>203</ele>
        <time>2017-02-08T09:03:10Z</time>
      </trkpt>
      <trkpt lat="47.13547" lon="5.4306">
        <ele>203</ele>
        <time>2017-02-08T09:03:15Z</time>
      </trkpt>
      <trkpt lat="47.13552" lon="5.43063">
        <ele>203</ele>
        <time>2017-02-08T09:03:20Z</time>
      </trkpt>
      <trkpt lat="47.13556" lon="5.43066">
        <ele>203</ele>
        <time>2017-02-08T09:03:25Z</time>
      </trkpt>
      <trkpt lat="47.1356" lon="5.4307">
        <ele>202</ele>
        <time>2017-02-08T09:03:30Z</time>
      </trkpt>
      <trkpt lat="47.13564" lon="5.43074">
        <ele>202</ele>
        <time>2017-02-08T09:03:35Z</time>
      </trkpt>
      <trkpt lat="47.13569" lon="5.43076">
        <ele>203</ele>
        <time>2017-02-08T09:03:40Z</time>
      </trkpt>
      <trkpt lat="47.13573" lon="5.43079">
        <ele>204</ele>
        <time>2017-02-08T09:03:56Z</time>
      </trkpt>
      <trkpt lat="47.13578" lon="5.43075">
        <ele>204</ele>
        <time>2017-02-08T09:04:42Z</time>
      </trkpt>
      <trkpt lat="47.1358" lon="5.43068">
        <ele>204</ele>
        <time>2017-02-08T09:04:48Z</time>
      </trkpt>
      <trkpt lat="47.13582" lon="5.43062">
        <ele>202</ele>
        <time>2017-02-08T09:04:53Z</time>
      </trkpt>
      <trkpt lat="47.13583" lon="5.43072">
        <ele>203</ele>
        <time>2017-02-08T09:05:48Z</time>
      </trkpt>
      <trkpt lat="47.13587" lon="5.43078">
        <ele>205</ele>
        <time>2017-02-08T09:06:03Z</time>
      </trkpt>
      <trkpt lat="47.13581" lon="5.43079">
        <ele>205</ele>
        <time>2017-02-08T09:07:06Z</time>
      </trkpt>
      <trkpt lat="47.13606" lon="5.43093">
        <ele>207</ele>
        <time>2017-02-08T09:13:39Z</time>
      </trkpt>
      <trkpt lat="47.1361" lon="5.43092">
        <ele>207</ele>
        <time>2017-02-08T09:13:43Z</time>
      </trkpt>
      <trkpt lat="47.13615" lon="5.43095">
        <ele>208</ele>
        <time>2017-02-08T09:13:51Z</time>
      </trkpt>
      <trkpt lat="47.13617" lon="5.43101">
        <ele>208</ele>
        <time>2017-02-08T09:13:56Z</time>
      </trkpt>
      <trkpt lat="47.13616" lon="5.43108">
        <ele>208</ele>
        <time>2017-02-08T09:14:01Z</time>
      </trkpt>
      <trkpt lat="47.13618" lon="5.43118">
        <ele>208</ele>
        <time>2017-02-08T09:14:11Z</time>
      </trkpt>
      <trkpt lat="47.13617" lon="5.43125">
        <ele>208</ele>
        <time>2017-02-08T09:14:17Z</time>
      </trkpt>
      <trkpt lat="47.13618" lon="5.43132">
        <ele>208</ele>
        <time>2017-02-08T09:14:25Z</time>
      </trkpt>
      <trkpt lat="47.13614" lon="5.43147">
        <ele>208</ele>
        <time>2017-02-08T09:14:34Z</time>
      </trkpt>
      <trkpt lat="47.13609" lon="5.43178">
        <ele>208</ele>
        <time>2017-02-08T09:14:52Z</time>
      </trkpt>
      <trkpt lat="47.13604" lon="5.43208">
        <ele>209</ele>
        <time>2017-02-08T09:15:10Z</time>
      </trkpt>
      <trkpt lat="47.13604" lon="5.43215">
        <ele>208</ele>
        <time>2017-02-08T09:15:15Z</time>
      </trkpt>
      <trkpt lat="47.13599" lon="5.43266">
        <ele>209</ele>
        <time>2017-02-08T09:15:48Z</time>
      </trkpt>
      <trkpt lat="47.13595" lon="5.43289">
        <ele>209</ele>
        <time>2017-02-08T09:16:01Z</time>
      </trkpt>
      <trkpt lat="47.13594" lon="5.43295">
        <ele>210</ele>
        <time>2017-02-08T09:16:05Z</time>
      </trkpt>
      <trkpt lat="47.13589" lon="5.43345">
        <ele>210</ele>
        <time>2017-02-08T09:16:33Z</time>
      </trkpt>
      <trkpt lat="47.13586" lon="5.43398">
        <ele>209</ele>
        <time>2017-02-08T09:17:03Z</time>
      </trkpt>
      <trkpt lat="47.13589" lon="5.43419">
        <ele>208</ele>
        <time>2017-02-08T09:17:15Z</time>
      </trkpt>
      <trkpt lat="47.1359" lon="5.43427">
        <ele>208</ele>
        <time>2017-02-08T09:17:19Z</time>
      </trkpt>
      <trkpt lat="47.13592" lon="5.43434">
        <ele>209</ele>
        <time>2017-02-08T09:17:23Z</time>
      </trkpt>
      <trkpt lat="47.13593" lon="5.43442">
        <ele>209</ele>
        <time>2017-02-08T09:17:28Z</time>
      </trkpt>
      <trkpt lat="47.13596" lon="5.43463">
        <ele>207</ele>
        <time>2017-02-08T09:17:41Z</time>
      </trkpt>
      <trkpt lat="47.13596" lon="5.4347">
        <ele>207</ele>
        <time>2017-02-08T09:17:46Z</time>
      </trkpt>
      <trkpt lat="47.13596" lon="5.43477">
        <ele>207</ele>
        <time>2017-02-08T09:17:51Z</time>
      </trkpt>
      <trkpt lat="47.13592" lon="5.43535">
        <ele>207</ele>
        <time>2017-02-08T09:18:24Z</time>
      </trkpt>
      <trkpt lat="47.13591" lon="5.4355">
        <ele>207</ele>
        <time>2017-02-08T09:18:32Z</time>
      </trkpt>
      <trkpt lat="47.13591" lon="5.43565">
        <ele>208</ele>
        <time>2017-02-08T09:18:40Z</time>
      </trkpt>
      <trkpt lat="47.1359" lon="5.43572">
        <ele>207</ele>
        <time>2017-02-08T09:18:44Z</time>
      </trkpt>
      <trkpt lat="47.1359" lon="5.43579">
        <ele>207</ele>
        <time>2017-02-08T09:18:49Z</time>
      </trkpt>
      <trkpt lat="47.1359" lon="5.43593">
        <ele>207</ele>
        <time>2017-02-08T09:18:57Z</time>
      </trkpt>
      <trkpt lat="47.13588" lon="5.43608">
        <ele>208</ele>
        <time>2017-02-08T09:19:05Z</time>
      </trkpt>
      <trkpt lat="47.13589" lon="5.4366">
        <ele>209</ele>
        <time>2017-02-08T09:19:36Z</time>
      </trkpt>
      <trkpt lat="47.13589" lon="5.43675">
        <ele>208</ele>
        <time>2017-02-08T09:19:46Z</time>
      </trkpt>
      <trkpt lat="47.13588" lon="5.43691">
        <ele>209</ele>
        <time>2017-02-08T09:19:54Z</time>
      </trkpt>
      <trkpt lat="47.13588" lon="5.43722">
        <ele>207</ele>
        <time>2017-02-08T09:20:13Z</time>
      </trkpt>
      <trkpt lat="47.13587" lon="5.43729">
        <ele>207</ele>
        <time>2017-02-08T09:20:17Z</time>
      </trkpt>
      <trkpt lat="47.13587" lon="5.43737">
        <ele>207</ele>
        <time>2017-02-08T09:20:22Z</time>
      </trkpt>
      <trkpt lat="47.13589" lon="5.43743">
        <ele>205</ele>
        <time>2017-02-08T09:20:27Z</time>
      </trkpt>
      <trkpt lat="47.13586" lon="5.43772">
        <ele>204</ele>
        <time>2017-02-08T09:20:43Z</time>
      </trkpt>
      <trkpt lat="47.13584" lon="5.43779">
        <ele>203</ele>
        <time>2017-02-08T09:20:47Z</time>
      </trkpt>
      <trkpt lat="47.1357" lon="5.43826">
        <ele>203</ele>
        <time>2017-02-08T09:21:17Z</time>
      </trkpt>
      <trkpt lat="47.13569" lon="5.43832">
        <ele>204</ele>
        <time>2017-02-08T09:21:21Z</time>
      </trkpt>
      <trkpt lat="47.13567" lon="5.4384">
        <ele>204</ele>
        <time>2017-02-08T09:21:26Z</time>
      </trkpt>
      <trkpt lat="47.13565" lon="5.43846">
        <ele>204</ele>
        <time>2017-02-08T09:21:30Z</time>
      </trkpt>
      <trkpt lat="47.13563" lon="5.43853">
        <ele>204</ele>
        <time>2017-02-08T09:21:34Z</time>
      </trkpt>
      <trkpt lat="47.13561" lon="5.4386">
        <ele>203</ele>
        <time>2017-02-08T09:21:39Z</time>
      </trkpt>
      <trkpt lat="47.1356" lon="5.43874">
        <ele>202</ele>
        <time>2017-02-08T09:21:48Z</time>
      </trkpt>
      <trkpt lat="47.13559" lon="5.43881">
        <ele>201</ele>
        <time>2017-02-08T09:21:52Z</time>
      </trkpt>
      <trkpt lat="47.13559" lon="5.43897">
        <ele>202</ele>
        <time>2017-02-08T09:22:02Z</time>
      </trkpt>
      <trkpt lat="47.13559" lon="5.43911">
        <ele>201</ele>
        <time>2017-02-08T09:22:10Z</time>
      </trkpt>
      <trkpt lat="47.13564" lon="5.43962">
        <ele>197</ele>
        <time>2017-02-08T09:22:42Z</time>
      </trkpt>
      <trkpt lat="47.13563" lon="5.43985">
        <ele>195</ele>
        <time>2017-02-08T09:22:56Z</time>
      </trkpt>
      <trkpt lat="47.13559" lon="5.44005">
        <ele>194</ele>
        <time>2017-02-08T09:23:08Z</time>
      </trkpt>
      <trkpt lat="47.13555" lon="5.4402">
        <ele>195</ele>
        <time>2017-02-08T09:23:16Z</time>
      </trkpt>
      <trkpt lat="47.13552" lon="5.44025">
        <ele>196</ele>
        <time>2017-02-08T09:23:20Z</time>
      </trkpt>
      <trkpt lat="47.13546" lon="5.44039">
        <ele>196</ele>
        <time>2017-02-08T09:23:29Z</time>
      </trkpt>
      <trkpt lat="47.13541" lon="5.4405">
        <ele>195</ele>
        <time>2017-02-08T09:23:37Z</time>
      </trkpt>
      <trkpt lat="47.13537" lon="5.44057">
        <ele>195</ele>
        <time>2017-02-08T09:23:42Z</time>
      </trkpt>
      <trkpt lat="47.13533" lon="5.4406">
        <ele>196</ele>
        <time>2017-02-08T09:23:50Z</time>
      </trkpt>
      <trkpt lat="47.13531" lon="5.44066">
        <ele>195</ele>
        <time>2017-02-08T09:23:56Z</time>
      </trkpt>
      <trkpt lat="47.13529" lon="5.44073">
        <ele>195</ele>
        <time>2017-02-08T09:24:03Z</time>
      </trkpt>
      <trkpt lat="47.13526" lon="5.44088">
        <ele>196</ele>
        <time>2017-02-08T09:24:13Z</time>
      </trkpt>
      <trkpt lat="47.13527" lon="5.44095">
        <ele>196</ele>
        <time>2017-02-08T09:24:17Z</time>
      </trkpt>
      <trkpt lat="47.13531" lon="5.44117">
        <ele>195</ele>
        <time>2017-02-08T09:24:31Z</time>
      </trkpt>
      <trkpt lat="47.13534" lon="5.4413">
        <ele>195</ele>
        <time>2017-02-08T09:24:39Z</time>
      </trkpt>
      <trkpt lat="47.13536" lon="5.44152">
        <ele>193</ele>
        <time>2017-02-08T09:24:52Z</time>
      </trkpt>
      <trkpt lat="47.13536" lon="5.44159">
        <ele>193</ele>
        <time>2017-02-08T09:24:56Z</time>
      </trkpt>
      <trkpt lat="47.13538" lon="5.44173">
        <ele>194</ele>
        <time>2017-02-08T09:25:05Z</time>
      </trkpt>
      <trkpt lat="47.13541" lon="5.44203">
        <ele>194</ele>
        <time>2017-02-08T09:25:23Z</time>
      </trkpt>
      <trkpt lat="47.13542" lon="5.4421">
        <ele>194</ele>
        <time>2017-02-08T09:25:27Z</time>
      </trkpt>
      <trkpt lat="47.13542" lon="5.44217">
        <ele>195</ele>
        <time>2017-02-08T09:25:31Z</time>
      </trkpt>
      <trkpt lat="47.13544" lon="5.44224">
        <ele>194</ele>
        <time>2017-02-08T09:25:35Z</time>
      </trkpt>
      <trkpt lat="47.13556" lon="5.44238">
        <ele>193</ele>
        <time>2017-02-08T09:25:47Z</time>
      </trkpt>
      <trkpt lat="47.13589" lon="5.44267">
        <ele>191</ele>
        <time>2017-02-08T09:26:19Z</time>
      </trkpt>
      <trkpt lat="47.13593" lon="5.44271">
        <ele>191</ele>
        <time>2017-02-08T09:26:23Z</time>
      </trkpt>
      <trkpt lat="47.13625" lon="5.44296">
        <ele>193</ele>
        <time>2017-02-08T09:26:53Z</time>
      </trkpt>
      <trkpt lat="47.13648" lon="5.44312">
        <ele>192</ele>
        <time>2017-02-08T09:27:15Z</time>
      </trkpt>
      <trkpt lat="47.13667" lon="5.44322">
        <ele>193</ele>
        <time>2017-02-08T09:27:31Z</time>
      </trkpt>
      <trkpt lat="47.13682" lon="5.44328">
        <ele>191</ele>
        <time>2017-02-08T09:27:43Z</time>
      </trkpt>
      <trkpt lat="47.13687" lon="5.4433">
        <ele>191</ele>
        <time>2017-02-08T09:27:47Z</time>
      </trkpt>
      <trkpt lat="47.13692" lon="5.44333">
        <ele>192</ele>
        <time>2017-02-08T09:27:51Z</time>
      </trkpt>
      <trkpt lat="47.13702" lon="5.44336">
        <ele>193</ele>
        <time>2017-02-08T09:27:59Z</time>
      </trkpt>
      <trkpt lat="47.13707" lon="5.44338">
        <ele>193</ele>
        <time>2017-02-08T09:28:03Z</time>
      </trkpt>
      <trkpt lat="47.13711" lon="5.44341">
        <ele>194</ele>
        <time>2017-02-08T09:28:06Z</time>
      </trkpt>
      <trkpt lat="47.13716" lon="5.44345">
        <ele>194</ele>
        <time>2017-02-08T09:28:10Z</time>
      </trkpt>
      <trkpt lat="47.13721" lon="5.4436">
        <ele>195</ele>
        <time>2017-02-08T09:28:20Z</time>
      </trkpt>
      <trkpt lat="47.13722" lon="5.44367">
        <ele>196</ele>
        <time>2017-02-08T09:28:24Z</time>
      </trkpt>
      <trkpt lat="47.13722" lon="5.44398">
        <ele>197</ele>
        <time>2017-02-08T09:28:40Z</time>
      </trkpt>
      <trkpt lat="47.13721" lon="5.44412">
        <ele>197</ele>
        <time>2017-02-08T09:28:48Z</time>
      </trkpt>
      <trkpt lat="47.13717" lon="5.4444">
        <ele>198</ele>
        <time>2017-02-08T09:29:04Z</time>
      </trkpt>
      <trkpt lat="47.13718" lon="5.44447">
        <ele>198</ele>
        <time>2017-02-08T09:29:08Z</time>
      </trkpt>
      <trkpt lat="47.1372" lon="5.44454">
        <ele>199</ele>
        <time>2017-02-08T09:29:12Z</time>
      </trkpt>
      <trkpt lat="47.13727" lon="5.44465">
        <ele>198</ele>
        <time>2017-02-08T09:29:20Z</time>
      </trkpt>
      <trkpt lat="47.13735" lon="5.44473">
        <ele>198</ele>
        <time>2017-02-08T09:29:28Z</time>
      </trkpt>
      <trkpt lat="47.13748" lon="5.44486">
        <ele>199</ele>
        <time>2017-02-08T09:29:40Z</time>
      </trkpt>
      <trkpt lat="47.13777" lon="5.44502">
        <ele>199</ele>
        <time>2017-02-08T09:30:08Z</time>
      </trkpt>
      <trkpt lat="47.13786" lon="5.44509">
        <ele>198</ele>
        <time>2017-02-08T09:30:17Z</time>
      </trkpt>
      <trkpt lat="47.13795" lon="5.4452">
        <ele>197</ele>
        <time>2017-02-08T09:30:25Z</time>
      </trkpt>
      <trkpt lat="47.13813" lon="5.44546">
        <ele>197</ele>
        <time>2017-02-08T09:30:43Z</time>
      </trkpt>
      <trkpt lat="47.13822" lon="5.44556">
        <ele>198</ele>
        <time>2017-02-08T09:30:51Z</time>
      </trkpt>
      <trkpt lat="47.13845" lon="5.44585">
        <ele>198</ele>
        <time>2017-02-08T09:31:15Z</time>
      </trkpt>
      <trkpt lat="47.1385" lon="5.4459">
        <ele>197</ele>
        <time>2017-02-08T09:31:20Z</time>
      </trkpt>
      <trkpt lat="47.13853" lon="5.44595">
        <ele>197</ele>
        <time>2017-02-08T09:31:24Z</time>
      </trkpt>
      <trkpt lat="47.13857" lon="5.446">
        <ele>198</ele>
        <time>2017-02-08T09:31:28Z</time>
      </trkpt>
      <trkpt lat="47.13868" lon="5.44614">
        <ele>199</ele>
        <time>2017-02-08T09:31:40Z</time>
      </trkpt>
      <trkpt lat="47.13898" lon="5.44653">
        <ele>198</ele>
        <time>2017-02-08T09:32:12Z</time>
      </trkpt>
      <trkpt lat="47.13916" lon="5.44675">
        <ele>198</ele>
        <time>2017-02-08T09:32:32Z</time>
      </trkpt>
      <trkpt lat="47.13919" lon="5.44681">
        <ele>198</ele>
        <time>2017-02-08T09:32:36Z</time>
      </trkpt>
      <trkpt lat="47.13922" lon="5.44687">
        <ele>198</ele>
        <time>2017-02-08T09:32:40Z</time>
      </trkpt>
      <trkpt lat="47.13927" lon="5.44699">
        <ele>199</ele>
        <time>2017-02-08T09:32:48Z</time>
      </trkpt>
      <trkpt lat="47.13928" lon="5.44706">
        <ele>199</ele>
        <time>2017-02-08T09:32:52Z</time>
      </trkpt>
      <trkpt lat="47.13935" lon="5.4474">
        <ele>197</ele>
        <time>2017-02-08T09:33:12Z</time>
      </trkpt>
      <trkpt lat="47.13941" lon="5.44782">
        <ele>198</ele>
        <time>2017-02-08T09:33:38Z</time>
      </trkpt>
      <trkpt lat="47.13947" lon="5.44806">
        <ele>200</ele>
        <time>2017-02-08T09:34:00Z</time>
      </trkpt>
      <trkpt lat="47.1395" lon="5.44816">
        <ele>200</ele>
        <time>2017-02-08T09:34:18Z</time>
      </trkpt>
      <trkpt lat="47.1397" lon="5.44857">
        <ele>198</ele>
        <time>2017-02-08T09:34:46Z</time>
      </trkpt>
      <trkpt lat="47.13972" lon="5.44865">
        <ele>197</ele>
        <time>2017-02-08T09:34:50Z</time>
      </trkpt>
      <trkpt lat="47.13985" lon="5.44897">
        <ele>197</ele>
        <time>2017-02-08T09:35:08Z</time>
      </trkpt>
      <trkpt lat="47.14012" lon="5.44954">
        <ele>198</ele>
        <time>2017-02-08T09:35:40Z</time>
      </trkpt>
      <trkpt lat="47.14027" lon="5.44984">
        <ele>199</ele>
        <time>2017-02-08T09:35:57Z</time>
      </trkpt>
      <trkpt lat="47.14032" lon="5.44997">
        <ele>200</ele>
        <time>2017-02-08T09:36:05Z</time>
      </trkpt>
      <trkpt lat="47.14038" lon="5.45009">
        <ele>201</ele>
        <time>2017-02-08T09:36:13Z</time>
      </trkpt>
      <trkpt lat="47.14046" lon="5.45029">
        <ele>202</ele>
        <time>2017-02-08T09:36:24Z</time>
      </trkpt>
      <trkpt lat="47.14054" lon="5.45048">
        <ele>203</ele>
        <time>2017-02-08T09:36:36Z</time>
      </trkpt>
      <trkpt lat="47.14056" lon="5.45054">
        <ele>203</ele>
        <time>2017-02-08T09:36:40Z</time>
      </trkpt>
      <trkpt lat="47.14059" lon="5.4506">
        <ele>203</ele>
        <time>2017-02-08T09:36:45Z</time>
      </trkpt>
      <trkpt lat="47.14061" lon="5.45066">
        <ele>204</ele>
        <time>2017-02-08T09:36:49Z</time>
      </trkpt>
      <trkpt lat="47.1407" lon="5.45093">
        <ele>204</ele>
        <time>2017-02-08T09:37:05Z</time>
      </trkpt>
      <trkpt lat="47.14083" lon="5.45134">
        <ele>206</ele>
        <time>2017-02-08T09:37:29Z</time>
      </trkpt>
      <trkpt lat="47.14086" lon="5.45148">
        <ele>205</ele>
        <time>2017-02-08T09:37:37Z</time>
      </trkpt>
      <trkpt lat="47.14089" lon="5.45162">
        <ele>204</ele>
        <time>2017-02-08T09:37:45Z</time>
      </trkpt>
      <trkpt lat="47.14095" lon="5.45199">
        <ele>204</ele>
        <time>2017-02-08T09:38:05Z</time>
      </trkpt>
      <trkpt lat="47.14101" lon="5.45252">
        <ele>202</ele>
        <time>2017-02-08T09:38:33Z</time>
      </trkpt>
      <trkpt lat="47.14102" lon="5.45284">
        <ele>202</ele>
        <time>2017-02-08T09:38:49Z</time>
      </trkpt>
      <trkpt lat="47.141" lon="5.45299">
        <ele>202</ele>
        <time>2017-02-08T09:38:59Z</time>
      </trkpt>
      <trkpt lat="47.14097" lon="5.45328">
        <ele>203</ele>
        <time>2017-02-08T09:39:20Z</time>
      </trkpt>
      <trkpt lat="47.14092" lon="5.45366">
        <ele>202</ele>
        <time>2017-02-08T09:39:43Z</time>
      </trkpt>
      <trkpt lat="47.14087" lon="5.45386">
        <ele>200</ele>
        <time>2017-02-08T09:39:59Z</time>
      </trkpt>
      <trkpt lat="47.14081" lon="5.45409">
        <ele>201</ele>
        <time>2017-02-08T09:40:20Z</time>
      </trkpt>
      <trkpt lat="47.14076" lon="5.45422">
        <ele>202</ele>
        <time>2017-02-08T09:40:27Z</time>
      </trkpt>
      <trkpt lat="47.14052" lon="5.45473">
        <ele>204</ele>
        <time>2017-02-08T09:40:59Z</time>
      </trkpt>
      <trkpt lat="47.14038" lon="5.45504">
        <ele>205</ele>
        <time>2017-02-08T09:41:17Z</time>
      </trkpt>
      <trkpt lat="47.14033" lon="5.45518">
        <ele>206</ele>
        <time>2017-02-08T09:41:25Z</time>
      </trkpt>
      <trkpt lat="47.14028" lon="5.45548">
        <ele>209</ele>
        <time>2017-02-08T09:41:41Z</time>
      </trkpt>
      <trkpt lat="47.14029" lon="5.45591">
        <ele>212</ele>
        <time>2017-02-08T09:42:06Z</time>
      </trkpt>
      <trkpt lat="47.1403" lon="5.456">
        <ele>212</ele>
        <time>2017-02-08T09:42:18Z</time>
      </trkpt>
      <trkpt lat="47.14026" lon="5.4561">
        <ele>212</ele>
        <time>2017-02-08T09:42:31Z</time>
      </trkpt>
      <trkpt lat="47.14022" lon="5.45612">
        <ele>213</ele>
        <time>2017-02-08T09:42:35Z</time>
      </trkpt>
      <trkpt lat="47.14017" lon="5.45609">
        <ele>213</ele>
        <time>2017-02-08T09:42:40Z</time>
      </trkpt>
      <trkpt lat="47.14001" lon="5.45608">
        <ele>210</ele>
        <time>2017-02-08T09:42:54Z</time>
      </trkpt>
      <trkpt lat="47.13961" lon="5.45607">
        <ele>210</ele>
        <time>2017-02-08T09:43:27Z</time>
      </trkpt>
      <trkpt lat="47.1395" lon="5.45606">
        <ele>210</ele>
        <time>2017-02-08T09:43:35Z</time>
      </trkpt>
      <trkpt lat="47.13944" lon="5.45606">
        <ele>210</ele>
        <time>2017-02-08T09:43:39Z</time>
      </trkpt>
      <trkpt lat="47.13934" lon="5.45605">
        <ele>209</ele>
        <time>2017-02-08T09:43:47Z</time>
      </trkpt>
      <trkpt lat="47.13923" lon="5.45606">
        <ele>209</ele>
        <time>2017-02-08T09:43:55Z</time>
      </trkpt>
      <trkpt lat="47.13917" lon="5.45607">
        <ele>209</ele>
        <time>2017-02-08T09:43:59Z</time>
      </trkpt>
      <trkpt lat="47.13912" lon="5.45607">
        <ele>209</ele>
        <time>2017-02-08T09:44:03Z</time>
      </trkpt>
      <trkpt lat="47.13907" lon="5.45607">
        <ele>208</ele>
        <time>2017-02-08T09:44:07Z</time>
      </trkpt>
      <trkpt lat="47.13902" lon="5.45607">
        <ele>207</ele>
        <time>2017-02-08T09:44:11Z</time>
      </trkpt>
      <trkpt lat="47.13897" lon="5.45609">
        <ele>207</ele>
        <time>2017-02-08T09:44:16Z</time>
      </trkpt>
      <trkpt lat="47.13891" lon="5.45609">
        <ele>206</ele>
        <time>2017-02-08T09:44:20Z</time>
      </trkpt>
      <trkpt lat="47.13876" lon="5.45608">
        <ele>205</ele>
        <time>2017-02-08T09:44:32Z</time>
      </trkpt>
      <trkpt lat="47.13836" lon="5.45621">
        <ele>209</ele>
        <time>2017-02-08T09:45:04Z</time>
      </trkpt>
      <trkpt lat="47.13808" lon="5.45619">
        <ele>209</ele>
        <time>2017-02-08T09:45:25Z</time>
      </trkpt>
      <trkpt lat="47.1379" lon="5.4561">
        <ele>210</ele>
        <time>2017-02-08T09:45:40Z</time>
      </trkpt>
      <trkpt lat="47.13784" lon="5.45607">
        <ele>211</ele>
        <time>2017-02-08T09:45:46Z</time>
      </trkpt>
      <trkpt lat="47.13775" lon="5.45598">
        <ele>211</ele>
        <time>2017-02-08T09:45:54Z</time>
      </trkpt>
      <trkpt lat="47.13761" lon="5.45589">
        <ele>212</ele>
        <time>2017-02-08T09:46:05Z</time>
      </trkpt>
      <trkpt lat="47.13746" lon="5.45584">
        <ele>212</ele>
        <time>2017-02-08T09:46:19Z</time>
      </trkpt>
      <trkpt lat="47.13741" lon="5.4558">
        <ele>213</ele>
        <time>2017-02-08T09:46:22Z</time>
      </trkpt>
      <trkpt lat="47.13737" lon="5.45577">
        <ele>213</ele>
        <time>2017-02-08T09:46:27Z</time>
      </trkpt>
      <trkpt lat="47.13698" lon="5.45557">
        <ele>214</ele>
        <time>2017-02-08T09:47:00Z</time>
      </trkpt>
      <trkpt lat="47.13693" lon="5.45555">
        <ele>214</ele>
        <time>2017-02-08T09:47:05Z</time>
      </trkpt>
      <trkpt lat="47.13674" lon="5.45542">
        <ele>214</ele>
        <time>2017-02-08T09:47:20Z</time>
      </trkpt>
      <trkpt lat="47.13665" lon="5.45543">
        <ele>214</ele>
        <time>2017-02-08T09:47:31Z</time>
      </trkpt>
      <trkpt lat="47.13656" lon="5.45538">
        <ele>214</ele>
        <time>2017-02-08T09:47:39Z</time>
      </trkpt>
      <trkpt lat="47.13645" lon="5.45528">
        <ele>215</ele>
        <time>2017-02-08T09:47:47Z</time>
      </trkpt>
      <trkpt lat="47.1364" lon="5.45527">
        <ele>215</ele>
        <time>2017-02-08T09:47:53Z</time>
      </trkpt>
      <trkpt lat="47.13623" lon="5.45511">
        <ele>215</ele>
        <time>2017-02-08T09:48:06Z</time>
      </trkpt>
      <trkpt lat="47.13618" lon="5.4551">
        <ele>214</ele>
        <time>2017-02-08T09:48:11Z</time>
      </trkpt>
      <trkpt lat="47.13609" lon="5.45505">
        <ele>214</ele>
        <time>2017-02-08T09:48:19Z</time>
      </trkpt>
      <trkpt lat="47.13605" lon="5.45502">
        <ele>215</ele>
        <time>2017-02-08T09:48:23Z</time>
      </trkpt>
      <trkpt lat="47.13596" lon="5.45494">
        <ele>217</ele>
        <time>2017-02-08T09:48:31Z</time>
      </trkpt>
      <trkpt lat="47.13592" lon="5.4549">
        <ele>217</ele>
        <time>2017-02-08T09:48:35Z</time>
      </trkpt>
      <trkpt lat="47.13581" lon="5.45484">
        <ele>217</ele>
        <time>2017-02-08T09:48:43Z</time>
      </trkpt>
      <trkpt lat="47.13576" lon="5.45484">
        <ele>217</ele>
        <time>2017-02-08T09:48:48Z</time>
      </trkpt>
      <trkpt lat="47.13568" lon="5.45476">
        <ele>217</ele>
        <time>2017-02-08T09:48:54Z</time>
      </trkpt>
      <trkpt lat="47.13563" lon="5.45474">
        <ele>218</ele>
        <time>2017-02-08T09:48:58Z</time>
      </trkpt>
      <trkpt lat="47.13554" lon="5.45471">
        <ele>218</ele>
        <time>2017-02-08T09:49:06Z</time>
      </trkpt>
      <trkpt lat="47.13548" lon="5.45469">
        <ele>218</ele>
        <time>2017-02-08T09:49:10Z</time>
      </trkpt>
      <trkpt lat="47.13543" lon="5.45467">
        <ele>218</ele>
        <time>2017-02-08T09:49:14Z</time>
      </trkpt>
      <trkpt lat="47.13513" lon="5.45465">
        <ele>220</ele>
        <time>2017-02-08T09:49:39Z</time>
      </trkpt>
      <trkpt lat="47.13508" lon="5.45465">
        <ele>220</ele>
        <time>2017-02-08T09:49:44Z</time>
      </trkpt>
      <trkpt lat="47.13503" lon="5.45467">
        <ele>220</ele>
        <time>2017-02-08T09:49:48Z</time>
      </trkpt>
      <trkpt lat="47.13498" lon="5.45466">
        <ele>220</ele>
        <time>2017-02-08T09:49:51Z</time>
      </trkpt>
      <trkpt lat="47.13493" lon="5.45463">
        <ele>220</ele>
        <time>2017-02-08T09:49:55Z</time>
      </trkpt>
      <trkpt lat="47.13465" lon="5.45469">
        <ele>221</ele>
        <time>2017-02-08T09:50:15Z</time>
      </trkpt>
      <trkpt lat="47.13447" lon="5.4548">
        <ele>222</ele>
        <time>2017-02-08T09:50:31Z</time>
      </trkpt>
      <trkpt lat="47.13442" lon="5.45483">
        <ele>222</ele>
        <time>2017-02-08T09:50:35Z</time>
      </trkpt>
      <trkpt lat="47.13431" lon="5.45498">
        <ele>221</ele>
        <time>2017-02-08T09:50:47Z</time>
      </trkpt>
      <trkpt lat="47.13421" lon="5.45501">
        <ele>221</ele>
        <time>2017-02-08T09:50:55Z</time>
      </trkpt>
      <trkpt lat="47.13417" lon="5.45504">
        <ele>221</ele>
        <time>2017-02-08T09:50:59Z</time>
      </trkpt>
      <trkpt lat="47.13403" lon="5.4551">
        <ele>221</ele>
        <time>2017-02-08T09:51:11Z</time>
      </trkpt>
      <trkpt lat="47.1338" lon="5.45524">
        <ele>220</ele>
        <time>2017-02-08T09:51:32Z</time>
      </trkpt>
      <trkpt lat="47.1337" lon="5.45528">
        <ele>220</ele>
        <time>2017-02-08T09:51:40Z</time>
      </trkpt>
      <trkpt lat="47.13365" lon="5.45532">
        <ele>220</ele>
        <time>2017-02-08T09:51:45Z</time>
      </trkpt>
      <trkpt lat="47.13362" lon="5.45537">
        <ele>220</ele>
        <time>2017-02-08T09:51:49Z</time>
      </trkpt>
      <trkpt lat="47.13358" lon="5.45542">
        <ele>220</ele>
        <time>2017-02-08T09:51:53Z</time>
      </trkpt>
      <trkpt lat="47.13353" lon="5.45544">
        <ele>220</ele>
        <time>2017-02-08T09:51:57Z</time>
      </trkpt>
      <trkpt lat="47.13348" lon="5.45544">
        <ele>220</ele>
        <time>2017-02-08T09:52:01Z</time>
      </trkpt>
      <trkpt lat="47.13343" lon="5.45546">
        <ele>219</ele>
        <time>2017-02-08T09:52:05Z</time>
      </trkpt>
      <trkpt lat="47.13329" lon="5.4555">
        <ele>219</ele>
        <time>2017-02-08T09:52:17Z</time>
      </trkpt>
      <trkpt lat="47.13303" lon="5.45563">
        <ele>217</ele>
        <time>2017-02-08T09:52:37Z</time>
      </trkpt>
      <trkpt lat="47.13266" lon="5.45586">
        <ele>218</ele>
        <time>2017-02-08T09:53:10Z</time>
      </trkpt>
      <trkpt lat="47.13251" lon="5.4559">
        <ele>218</ele>
        <time>2017-02-08T09:53:22Z</time>
      </trkpt>
      <trkpt lat="47.13238" lon="5.45601">
        <ele>219</ele>
        <time>2017-02-08T09:53:34Z</time>
      </trkpt>
      <trkpt lat="47.13234" lon="5.45603">
        <ele>220</ele>
        <time>2017-02-08T09:53:38Z</time>
      </trkpt>
      <trkpt lat="47.13229" lon="5.45605">
        <ele>219</ele>
        <time>2017-02-08T09:53:43Z</time>
      </trkpt>
      <trkpt lat="47.13214" lon="5.45609">
        <ele>220</ele>
        <time>2017-02-08T09:53:55Z</time>
      </trkpt>
      <trkpt lat="47.13195" lon="5.45616">
        <ele>218</ele>
        <time>2017-02-08T09:54:09Z</time>
      </trkpt>
      <trkpt lat="47.1319" lon="5.45617">
        <ele>218</ele>
        <time>2017-02-08T09:54:13Z</time>
      </trkpt>
      <trkpt lat="47.1315" lon="5.45633">
        <ele>216</ele>
        <time>2017-02-08T09:54:44Z</time>
      </trkpt>
      <trkpt lat="47.13141" lon="5.4564">
        <ele>216</ele>
        <time>2017-02-08T09:54:52Z</time>
      </trkpt>
      <trkpt lat="47.13132" lon="5.45645">
        <ele>216</ele>
        <time>2017-02-08T09:55:00Z</time>
      </trkpt>
      <trkpt lat="47.13128" lon="5.45648">
        <ele>216</ele>
        <time>2017-02-08T09:55:04Z</time>
      </trkpt>
      <trkpt lat="47.13093" lon="5.45667">
        <ele>215</ele>
        <time>2017-02-08T09:55:35Z</time>
      </trkpt>
      <trkpt lat="47.13085" lon="5.45674">
        <ele>215</ele>
        <time>2017-02-08T09:55:43Z</time>
      </trkpt>
      <trkpt lat="47.13071" lon="5.4568">
        <ele>215</ele>
        <time>2017-02-08T09:55:55Z</time>
      </trkpt>
      <trkpt lat="47.13066" lon="5.45683">
        <ele>215</ele>
        <time>2017-02-08T09:55:59Z</time>
      </trkpt>
      <trkpt lat="47.13062" lon="5.45682">
        <ele>215</ele>
        <time>2017-02-08T09:56:02Z</time>
      </trkpt>
      <trkpt lat="47.13051" lon="5.4568">
        <ele>215</ele>
        <time>2017-02-08T09:56:09Z</time>
      </trkpt>
      <trkpt lat="47.13042" lon="5.45681">
        <ele>215</ele>
        <time>2017-02-08T09:56:17Z</time>
      </trkpt>
      <trkpt lat="47.13037" lon="5.4568">
        <ele>215</ele>
        <time>2017-02-08T09:56:21Z</time>
      </trkpt>
      <trkpt lat="47.13033" lon="5.45677">
        <ele>215</ele>
        <time>2017-02-08T09:56:24Z</time>
      </trkpt>
      <trkpt lat="47.13023" lon="5.45677">
        <ele>215</ele>
        <time>2017-02-08T09:56:32Z</time>
      </trkpt>
      <trkpt lat="47.13003" lon="5.45677">
        <ele>215</ele>
        <time>2017-02-08T09:56:50Z</time>
      </trkpt>
      <trkpt lat="47.12998" lon="5.45675">
        <ele>215</ele>
        <time>2017-02-08T09:56:54Z</time>
      </trkpt>
      <trkpt lat="47.12987" lon="5.45678">
        <ele>215</ele>
        <time>2017-02-08T09:57:04Z</time>
      </trkpt>
      <trkpt lat="47.12982" lon="5.45678">
        <ele>216</ele>
        <time>2017-02-08T09:57:08Z</time>
      </trkpt>
      <trkpt lat="47.12977" lon="5.45678">
        <ele>216</ele>
        <time>2017-02-08T09:57:12Z</time>
      </trkpt>
      <trkpt lat="47.12967" lon="5.45675">
        <ele>215</ele>
        <time>2017-02-08T09:57:18Z</time>
      </trkpt>
      <trkpt lat="47.12962" lon="5.45676">
        <ele>215</ele>
        <time>2017-02-08T09:57:22Z</time>
      </trkpt>
      <trkpt lat="47.12958" lon="5.45679">
        <ele>215</ele>
        <time>2017-02-08T09:57:26Z</time>
      </trkpt>
      <trkpt lat="47.12952" lon="5.45679">
        <ele>216</ele>
        <time>2017-02-08T09:57:30Z</time>
      </trkpt>
      <trkpt lat="47.12943" lon="5.45683">
        <ele>215</ele>
        <time>2017-02-08T09:57:38Z</time>
      </trkpt>
      <trkpt lat="47.12937" lon="5.45684">
        <ele>216</ele>
        <time>2017-02-08T09:57:42Z</time>
      </trkpt>
      <trkpt lat="47.12932" lon="5.45683">
        <ele>216</ele>
        <time>2017-02-08T09:57:46Z</time>
      </trkpt>
      <trkpt lat="47.12927" lon="5.45684">
        <ele>216</ele>
        <time>2017-02-08T09:57:50Z</time>
      </trkpt>
      <trkpt lat="47.12904" lon="5.45698">
        <ele>216</ele>
        <time>2017-02-08T09:58:10Z</time>
      </trkpt>
      <trkpt lat="47.129" lon="5.45702">
        <ele>216</ele>
        <time>2017-02-08T09:58:14Z</time>
      </trkpt>
      <trkpt lat="47.12895" lon="5.45703">
        <ele>217</ele>
        <time>2017-02-08T09:58:18Z</time>
      </trkpt>
      <trkpt lat="47.1289" lon="5.45706">
        <ele>217</ele>
        <time>2017-02-08T09:58:23Z</time>
      </trkpt>
      <trkpt lat="47.12885" lon="5.45707">
        <ele>217</ele>
        <time>2017-02-08T09:58:27Z</time>
      </trkpt>
      <trkpt lat="47.1288" lon="5.45709">
        <ele>217</ele>
        <time>2017-02-08T09:58:31Z</time>
      </trkpt>
      <trkpt lat="47.12852" lon="5.45719">
        <ele>219</ele>
        <time>2017-02-08T09:58:56Z</time>
      </trkpt>
      <trkpt lat="47.12847" lon="5.45719">
        <ele>219</ele>
        <time>2017-02-08T09:59:01Z</time>
      </trkpt>
      <trkpt lat="47.12842" lon="5.45721">
        <ele>219</ele>
        <time>2017-02-08T09:59:07Z</time>
      </trkpt>
      <trkpt lat="47.12832" lon="5.45719">
        <ele>218</ele>
        <time>2017-02-08T09:59:16Z</time>
      </trkpt>
      <trkpt lat="47.12827" lon="5.45722">
        <ele>219</ele>
        <time>2017-02-08T09:59:23Z</time>
      </trkpt>
      <trkpt lat="47.12791" lon="5.45733">
        <ele>221</ele>
        <time>2017-02-08T09:59:54Z</time>
      </trkpt>
      <trkpt lat="47.12781" lon="5.45737">
        <ele>221</ele>
        <time>2017-02-08T10:00:04Z</time>
      </trkpt>
      <trkpt lat="47.12771" lon="5.45737">
        <ele>221</ele>
        <time>2017-02-08T10:00:12Z</time>
      </trkpt>
      <trkpt lat="47.1276" lon="5.45739">
        <ele>222</ele>
        <time>2017-02-08T10:00:20Z</time>
      </trkpt>
      <trkpt lat="47.12755" lon="5.45736">
        <ele>222</ele>
        <time>2017-02-08T10:00:24Z</time>
      </trkpt>
      <trkpt lat="47.1275" lon="5.45734">
        <ele>223</ele>
        <time>2017-02-08T10:00:28Z</time>
      </trkpt>
      <trkpt lat="47.12745" lon="5.45733">
        <ele>223</ele>
        <time>2017-02-08T10:00:32Z</time>
      </trkpt>
      <trkpt lat="47.1274" lon="5.45731">
        <ele>223</ele>
        <time>2017-02-08T10:00:36Z</time>
      </trkpt>
      <trkpt lat="47.1273" lon="5.45724">
        <ele>223</ele>
        <time>2017-02-08T10:00:43Z</time>
      </trkpt>
      <trkpt lat="47.12726" lon="5.45721">
        <ele>223</ele>
        <time>2017-02-08T10:00:47Z</time>
      </trkpt>
      <trkpt lat="47.12721" lon="5.45721">
        <ele>223</ele>
        <time>2017-02-08T10:00:52Z</time>
      </trkpt>
      <trkpt lat="47.12711" lon="5.45716">
        <ele>223</ele>
        <time>2017-02-08T10:01:01Z</time>
      </trkpt>
      <trkpt lat="47.12708" lon="5.4571">
        <ele>224</ele>
        <time>2017-02-08T10:01:06Z</time>
      </trkpt>
      <trkpt lat="47.1269" lon="5.45701">
        <ele>224</ele>
        <time>2017-02-08T10:01:21Z</time>
      </trkpt>
      <trkpt lat="47.12686" lon="5.45697">
        <ele>224</ele>
        <time>2017-02-08T10:01:25Z</time>
      </trkpt>
      <trkpt lat="47.1267" lon="5.4569">
        <ele>225</ele>
        <time>2017-02-08T10:01:37Z</time>
      </trkpt>
      <trkpt lat="47.12667" lon="5.45684">
        <ele>225</ele>
        <time>2017-02-08T10:01:42Z</time>
      </trkpt>
      <trkpt lat="47.12662" lon="5.45681">
        <ele>225</ele>
        <time>2017-02-08T10:01:47Z</time>
      </trkpt>
      <trkpt lat="47.12658" lon="5.45678">
        <ele>224</ele>
        <time>2017-02-08T10:01:55Z</time>
      </trkpt>
      <trkpt lat="47.12659" lon="5.45671">
        <ele>224</ele>
        <time>2017-02-08T10:02:02Z</time>
      </trkpt>
      <trkpt lat="47.12661" lon="5.45664">
        <ele>224</ele>
        <time>2017-02-08T10:02:07Z</time>
      </trkpt>
      <trkpt lat="47.12663" lon="5.45657">
        <ele>224</ele>
        <time>2017-02-08T10:02:11Z</time>
      </trkpt>
      <trkpt lat="47.12664" lon="5.45649">
        <ele>224</ele>
        <time>2017-02-08T10:02:15Z</time>
      </trkpt>
      <trkpt lat="47.12666" lon="5.45635">
        <ele>225</ele>
        <time>2017-02-08T10:02:22Z</time>
      </trkpt>
      <trkpt lat="47.12667" lon="5.45619">
        <ele>225</ele>
        <time>2017-02-08T10:02:30Z</time>
      </trkpt>
      <trkpt lat="47.12672" lon="5.45605">
        <ele>225</ele>
        <time>2017-02-08T10:02:41Z</time>
      </trkpt>
      <trkpt lat="47.12673" lon="5.45598">
        <ele>225</ele>
        <time>2017-02-08T10:02:46Z</time>
      </trkpt>
      <trkpt lat="47.12675" lon="5.45591">
        <ele>225</ele>
        <time>2017-02-08T10:02:51Z</time>
      </trkpt>
      <trkpt lat="47.12674" lon="5.45584">
        <ele>225</ele>
        <time>2017-02-08T10:02:57Z</time>
      </trkpt>
      <trkpt lat="47.1267" lon="5.45578">
        <ele>225</ele>
        <time>2017-02-08T10:03:02Z</time>
      </trkpt>
      <trkpt lat="47.12668" lon="5.45571">
        <ele>225</ele>
        <time>2017-02-08T10:03:05Z</time>
      </trkpt>
      <trkpt lat="47.12665" lon="5.45565">
        <ele>225</ele>
        <time>2017-02-08T10:03:12Z</time>
      </trkpt>
      <trkpt lat="47.12633" lon="5.4553">
        <ele>224</ele>
        <time>2017-02-08T10:03:45Z</time>
      </trkpt>
      <trkpt lat="47.12629" lon="5.45526">
        <ele>224</ele>
        <time>2017-02-08T10:03:49Z</time>
      </trkpt>
      <trkpt lat="47.12626" lon="5.4552">
        <ele>224</ele>
        <time>2017-02-08T10:03:53Z</time>
      </trkpt>
      <trkpt lat="47.12618" lon="5.45514">
        <ele>224</ele>
        <time>2017-02-08T10:04:02Z</time>
      </trkpt>
      <trkpt lat="47.12612" lon="5.45512">
        <ele>224</ele>
        <time>2017-02-08T10:04:07Z</time>
      </trkpt>
      <trkpt lat="47.12599" lon="5.45499">
        <ele>224</ele>
        <time>2017-02-08T10:04:18Z</time>
      </trkpt>
      <trkpt lat="47.12591" lon="5.45491">
        <ele>225</ele>
        <time>2017-02-08T10:04:27Z</time>
      </trkpt>
      <trkpt lat="47.12585" lon="5.45481">
        <ele>225</ele>
        <time>2017-02-08T10:04:35Z</time>
      </trkpt>
      <trkpt lat="47.12581" lon="5.45475">
        <ele>225</ele>
        <time>2017-02-08T10:04:41Z</time>
      </trkpt>
      <trkpt lat="47.12578" lon="5.45468">
        <ele>225</ele>
        <time>2017-02-08T10:04:45Z</time>
      </trkpt>
      <trkpt lat="47.12576" lon="5.45461">
        <ele>225</ele>
        <time>2017-02-08T10:04:48Z</time>
      </trkpt>
      <trkpt lat="47.12576" lon="5.45454">
        <ele>225</ele>
        <time>2017-02-08T10:04:51Z</time>
      </trkpt>
      <trkpt lat="47.12577" lon="5.45446">
        <ele>225</ele>
        <time>2017-02-08T10:04:55Z</time>
      </trkpt>
      <trkpt lat="47.12577" lon="5.45439">
        <ele>225</ele>
        <time>2017-02-08T10:05:01Z</time>
      </trkpt>
      <trkpt lat="47.12577" lon="5.4543">
        <ele>226</ele>
        <time>2017-02-08T10:05:06Z</time>
      </trkpt>
      <trkpt lat="47.12578" lon="5.45424">
        <ele>226</ele>
        <time>2017-02-08T10:05:10Z</time>
      </trkpt>
      <trkpt lat="47.12576" lon="5.45417">
        <ele>227</ele>
        <time>2017-02-08T10:05:13Z</time>
      </trkpt>
      <trkpt lat="47.12573" lon="5.45403">
        <ele>227</ele>
        <time>2017-02-08T10:05:21Z</time>
      </trkpt>
      <trkpt lat="47.1257" lon="5.45397">
        <ele>226</ele>
        <time>2017-02-08T10:05:26Z</time>
      </trkpt>
      <trkpt lat="47.12569" lon="5.4539">
        <ele>226</ele>
        <time>2017-02-08T10:05:31Z</time>
      </trkpt>
      <trkpt lat="47.12571" lon="5.45383">
        <ele>226</ele>
        <time>2017-02-08T10:05:36Z</time>
      </trkpt>
      <trkpt lat="47.1257" lon="5.45375">
        <ele>226</ele>
        <time>2017-02-08T10:05:40Z</time>
      </trkpt>
      <trkpt lat="47.12563" lon="5.45363">
        <ele>225</ele>
        <time>2017-02-08T10:05:49Z</time>
      </trkpt>
      <trkpt lat="47.1256" lon="5.45356">
        <ele>225</ele>
        <time>2017-02-08T10:05:52Z</time>
      </trkpt>
      <trkpt lat="47.12544" lon="5.45335">
        <ele>226</ele>
        <time>2017-02-08T10:06:10Z</time>
      </trkpt>
      <trkpt lat="47.1254" lon="5.45332">
        <ele>225</ele>
        <time>2017-02-08T10:06:15Z</time>
      </trkpt>
      <trkpt lat="47.12536" lon="5.45327">
        <ele>224</ele>
        <time>2017-02-08T10:06:20Z</time>
      </trkpt>
      <trkpt lat="47.12513" lon="5.45297">
        <ele>224</ele>
        <time>2017-02-08T10:06:44Z</time>
      </trkpt>
      <trkpt lat="47.12509" lon="5.45294">
        <ele>224</ele>
        <time>2017-02-08T10:06:49Z</time>
      </trkpt>
      <trkpt lat="47.12503" lon="5.45292">
        <ele>225</ele>
        <time>2017-02-08T10:06:55Z</time>
      </trkpt>
      <trkpt lat="47.12498" lon="5.45296">
        <ele>225</ele>
        <time>2017-02-08T10:07:00Z</time>
      </trkpt>
      <trkpt lat="47.12492" lon="5.45307">
        <ele>225</ele>
        <time>2017-02-08T10:07:09Z</time>
      </trkpt>
      <trkpt lat="47.12481" lon="5.45322">
        <ele>225</ele>
        <time>2017-02-08T10:07:23Z</time>
      </trkpt>
      <trkpt lat="47.12473" lon="5.45332">
        <ele>226</ele>
        <time>2017-02-08T10:07:32Z</time>
      </trkpt>
      <trkpt lat="47.12462" lon="5.45346">
        <ele>227</ele>
        <time>2017-02-08T10:07:45Z</time>
      </trkpt>
      <trkpt lat="47.12455" lon="5.45358">
        <ele>227</ele>
        <time>2017-02-08T10:07:55Z</time>
      </trkpt>
      <trkpt lat="47.12448" lon="5.45368">
        <ele>229</ele>
        <time>2017-02-08T10:08:05Z</time>
      </trkpt>
      <trkpt lat="47.12441" lon="5.45379">
        <ele>229</ele>
        <time>2017-02-08T10:08:14Z</time>
      </trkpt>
      <trkpt lat="47.12437" lon="5.45383">
        <ele>229</ele>
        <time>2017-02-08T10:08:19Z</time>
      </trkpt>
      <trkpt lat="47.12416" lon="5.45417">
        <ele>232</ele>
        <time>2017-02-08T10:08:49Z</time>
      </trkpt>
      <trkpt lat="47.12412" lon="5.45421">
        <ele>232</ele>
        <time>2017-02-08T10:08:54Z</time>
      </trkpt>
      <trkpt lat="47.12387" lon="5.45445">
        <ele>238</ele>
        <time>2017-02-08T10:09:28Z</time>
      </trkpt>
      <trkpt lat="47.1237" lon="5.45472">
        <ele>239</ele>
        <time>2017-02-08T10:09:49Z</time>
      </trkpt>
      <trkpt lat="47.12363" lon="5.4548">
        <ele>241</ele>
        <time>2017-02-08T10:09:58Z</time>
      </trkpt>
      <trkpt lat="47.1236" lon="5.45486">
        <ele>242</ele>
        <time>2017-02-08T10:10:02Z</time>
      </trkpt>
      <trkpt lat="47.12337" lon="5.45514">
        <ele>243</ele>
        <time>2017-02-08T10:10:33Z</time>
      </trkpt>
      <trkpt lat="47.12327" lon="5.45515">
        <ele>243</ele>
        <time>2017-02-08T10:10:43Z</time>
      </trkpt>
      <trkpt lat="47.12323" lon="5.45518">
        <ele>243</ele>
        <time>2017-02-08T10:10:48Z</time>
      </trkpt>
      <trkpt lat="47.12315" lon="5.45527">
        <ele>243</ele>
        <time>2017-02-08T10:10:58Z</time>
      </trkpt>
      <trkpt lat="47.1231" lon="5.4553">
        <ele>243</ele>
        <time>2017-02-08T10:11:03Z</time>
      </trkpt>
      <trkpt lat="47.12306" lon="5.45531">
        <ele>244</ele>
        <time>2017-02-08T10:11:07Z</time>
      </trkpt>
      <trkpt lat="47.12296" lon="5.45539">
        <ele>245</ele>
        <time>2017-02-08T10:11:18Z</time>
      </trkpt>
      <trkpt lat="47.12282" lon="5.45544">
        <ele>246</ele>
        <time>2017-02-08T10:11:33Z</time>
      </trkpt>
      <trkpt lat="47.1226" lon="5.4556">
        <ele>246</ele>
        <time>2017-02-08T10:11:57Z</time>
      </trkpt>
      <trkpt lat="47.12255" lon="5.45564">
        <ele>246</ele>
        <time>2017-02-08T10:12:02Z</time>
      </trkpt>
      <trkpt lat="47.12251" lon="5.45567">
        <ele>246</ele>
        <time>2017-02-08T10:12:07Z</time>
      </trkpt>
      <trkpt lat="47.12245" lon="5.45567">
        <ele>246</ele>
        <time>2017-02-08T10:12:11Z</time>
      </trkpt>
      <trkpt lat="47.12241" lon="5.4557">
        <ele>246</ele>
        <time>2017-02-08T10:12:17Z</time>
      </trkpt>
      <trkpt lat="47.12233" lon="5.45577">
        <ele>246</ele>
        <time>2017-02-08T10:12:27Z</time>
      </trkpt>
      <trkpt lat="47.12218" lon="5.45586">
        <ele>247</ele>
        <time>2017-02-08T10:12:41Z</time>
      </trkpt>
      <trkpt lat="47.12214" lon="5.45591">
        <ele>247</ele>
        <time>2017-02-08T10:12:45Z</time>
      </trkpt>
      <trkpt lat="47.12205" lon="5.45596">
        <ele>248</ele>
        <time>2017-02-08T10:12:53Z</time>
      </trkpt>
      <trkpt lat="47.12202" lon="5.45601">
        <ele>248</ele>
        <time>2017-02-08T10:12:57Z</time>
      </trkpt>
      <trkpt lat="47.12197" lon="5.45605">
        <ele>248</ele>
        <time>2017-02-08T10:13:02Z</time>
      </trkpt>
      <trkpt lat="47.12193" lon="5.45606">
        <ele>248</ele>
        <time>2017-02-08T10:13:07Z</time>
      </trkpt>
      <trkpt lat="47.12187" lon="5.45609">
        <ele>248</ele>
        <time>2017-02-08T10:13:12Z</time>
      </trkpt>
      <trkpt lat="47.12158" lon="5.45636">
        <ele>254</ele>
        <time>2017-02-08T10:13:45Z</time>
      </trkpt>
      <trkpt lat="47.12148" lon="5.45644">
        <ele>255</ele>
        <time>2017-02-08T10:13:56Z</time>
      </trkpt>
      <trkpt lat="47.1214" lon="5.45651">
        <ele>257</ele>
        <time>2017-02-08T10:14:07Z</time>
      </trkpt>
      <trkpt lat="47.12138" lon="5.45657">
        <ele>257</ele>
        <time>2017-02-08T10:14:13Z</time>
      </trkpt>
      <trkpt lat="47.12134" lon="5.45663">
        <ele>257</ele>
        <time>2017-02-08T10:14:17Z</time>
      </trkpt>
      <trkpt lat="47.12126" lon="5.45676">
        <ele>257</ele>
        <time>2017-02-08T10:14:26Z</time>
      </trkpt>
      <trkpt lat="47.12123" lon="5.45681">
        <ele>257</ele>
        <time>2017-02-08T10:14:31Z</time>
      </trkpt>
      <trkpt lat="47.12122" lon="5.45688">
        <ele>257</ele>
        <time>2017-02-08T10:14:38Z</time>
      </trkpt>
      <trkpt lat="47.12116" lon="5.45699">
        <ele>260</ele>
        <time>2017-02-08T10:14:55Z</time>
      </trkpt>
      <trkpt lat="47.12111" lon="5.45702">
        <ele>261</ele>
        <time>2017-02-08T10:15:01Z</time>
      </trkpt>
      <trkpt lat="47.12106" lon="5.45703">
        <ele>261</ele>
        <time>2017-02-08T10:15:08Z</time>
      </trkpt>
      <trkpt lat="47.12102" lon="5.45702">
        <ele>261</ele>
        <time>2017-02-08T10:15:14Z</time>
      </trkpt>
      <trkpt lat="47.12087" lon="5.45699">
        <ele>261</ele>
        <time>2017-02-08T10:15:30Z</time>
      </trkpt>
      <trkpt lat="47.12071" lon="5.45697">
        <ele>261</ele>
        <time>2017-02-08T10:15:46Z</time>
      </trkpt>
      <trkpt lat="47.12066" lon="5.45697">
        <ele>261</ele>
        <time>2017-02-08T10:15:52Z</time>
      </trkpt>
      <trkpt lat="47.12062" lon="5.45695">
        <ele>262</ele>
        <time>2017-02-08T10:15:58Z</time>
      </trkpt>
      <trkpt lat="47.12057" lon="5.45691">
        <ele>262</ele>
        <time>2017-02-08T10:16:03Z</time>
      </trkpt>
      <trkpt lat="47.12038" lon="5.45684">
        <ele>263</ele>
        <time>2017-02-08T10:16:22Z</time>
      </trkpt>
      <trkpt lat="47.12033" lon="5.45683">
        <ele>263</ele>
        <time>2017-02-08T10:16:26Z</time>
      </trkpt>
      <trkpt lat="47.12023" lon="5.45682">
        <ele>263</ele>
        <time>2017-02-08T10:16:37Z</time>
      </trkpt>
      <trkpt lat="47.12013" lon="5.45678">
        <ele>261</ele>
        <time>2017-02-08T10:16:46Z</time>
      </trkpt>
      <trkpt lat="47.12009" lon="5.45675">
        <ele>261</ele>
        <time>2017-02-08T10:16:50Z</time>
      </trkpt>
      <trkpt lat="47.12004" lon="5.45674">
        <ele>261</ele>
        <time>2017-02-08T10:16:55Z</time>
      </trkpt>
      <trkpt lat="47.11999" lon="5.45675">
        <ele>261</ele>
        <time>2017-02-08T10:17:00Z</time>
      </trkpt>
      <trkpt lat="47.11994" lon="5.45673">
        <ele>260</ele>
        <time>2017-02-08T10:17:04Z</time>
      </trkpt>
      <trkpt lat="47.11989" lon="5.45671">
        <ele>261</ele>
        <time>2017-02-08T10:17:08Z</time>
      </trkpt>
      <trkpt lat="47.11985" lon="5.45671">
        <ele>261</ele>
        <time>2017-02-08T10:17:12Z</time>
      </trkpt>
      <trkpt lat="47.1198" lon="5.45669">
        <ele>261</ele>
        <time>2017-02-08T10:17:17Z</time>
      </trkpt>
      <trkpt lat="47.11964" lon="5.45663">
        <ele>262</ele>
        <time>2017-02-08T10:17:32Z</time>
      </trkpt>
      <trkpt lat="47.11959" lon="5.45661">
        <ele>262</ele>
        <time>2017-02-08T10:17:36Z</time>
      </trkpt>
      <trkpt lat="47.11943" lon="5.4565">
        <ele>262</ele>
        <time>2017-02-08T10:17:49Z</time>
      </trkpt>
      <trkpt lat="47.11939" lon="5.45646">
        <ele>262</ele>
        <time>2017-02-08T10:17:53Z</time>
      </trkpt>
      <trkpt lat="47.11929" lon="5.45644">
        <ele>263</ele>
        <time>2017-02-08T10:18:02Z</time>
      </trkpt>
      <trkpt lat="47.11922" lon="5.45643">
        <ele>263</ele>
        <time>2017-02-08T10:18:11Z</time>
      </trkpt>
      <trkpt lat="47.11917" lon="5.4564">
        <ele>262</ele>
        <time>2017-02-08T10:18:15Z</time>
      </trkpt>
      <trkpt lat="47.11912" lon="5.4564">
        <ele>261</ele>
        <time>2017-02-08T10:18:18Z</time>
      </trkpt>
      <trkpt lat="47.11907" lon="5.45639">
        <ele>261</ele>
        <time>2017-02-08T10:18:23Z</time>
      </trkpt>
      <trkpt lat="47.11902" lon="5.45637">
        <ele>261</ele>
        <time>2017-02-08T10:18:27Z</time>
      </trkpt>
      <trkpt lat="47.11882" lon="5.45632">
        <ele>259</ele>
        <time>2017-02-08T10:18:44Z</time>
      </trkpt>
      <trkpt lat="47.11878" lon="5.45629">
        <ele>258</ele>
        <time>2017-02-08T10:18:49Z</time>
      </trkpt>
      <trkpt lat="47.11868" lon="5.45626">
        <ele>258</ele>
        <time>2017-02-08T10:18:59Z</time>
      </trkpt>
      <trkpt lat="47.11863" lon="5.45624">
        <ele>258</ele>
        <time>2017-02-08T10:19:03Z</time>
      </trkpt>
      <trkpt lat="47.11859" lon="5.45621">
        <ele>258</ele>
        <time>2017-02-08T10:19:07Z</time>
      </trkpt>
      <trkpt lat="47.11841" lon="5.45612">
        <ele>259</ele>
        <time>2017-02-08T10:19:24Z</time>
      </trkpt>
      <trkpt lat="47.11821" lon="5.45602">
        <ele>261</ele>
        <time>2017-02-08T10:19:42Z</time>
      </trkpt>
      <trkpt lat="47.11817" lon="5.45598">
        <ele>261</ele>
        <time>2017-02-08T10:19:46Z</time>
      </trkpt>
      <trkpt lat="47.11805" lon="5.45585">
        <ele>262</ele>
        <time>2017-02-08T10:19:56Z</time>
      </trkpt>
      <trkpt lat="47.118" lon="5.45581">
        <ele>262</ele>
        <time>2017-02-08T10:20:01Z</time>
      </trkpt>
      <trkpt lat="47.11774" lon="5.45565">
        <ele>267</ele>
        <time>2017-02-08T10:20:26Z</time>
      </trkpt>
      <trkpt lat="47.11769" lon="5.45564">
        <ele>267</ele>
        <time>2017-02-08T10:20:31Z</time>
      </trkpt>
      <trkpt lat="47.11764" lon="5.45564">
        <ele>267</ele>
        <time>2017-02-08T10:20:36Z</time>
      </trkpt>
      <trkpt lat="47.1176" lon="5.45563">
        <ele>267</ele>
        <time>2017-02-08T10:20:40Z</time>
      </trkpt>
      <trkpt lat="47.11756" lon="5.4556">
        <ele>267</ele>
        <time>2017-02-08T10:20:43Z</time>
      </trkpt>
      <trkpt lat="47.11751" lon="5.4556">
        <ele>266</ele>
        <time>2017-02-08T10:20:48Z</time>
      </trkpt>
      <trkpt lat="47.11732" lon="5.45549">
        <ele>265</ele>
        <time>2017-02-08T10:21:05Z</time>
      </trkpt>
      <trkpt lat="47.11727" lon="5.45549">
        <ele>265</ele>
        <time>2017-02-08T10:21:11Z</time>
      </trkpt>
      <trkpt lat="47.11704" lon="5.45528">
        <ele>266</ele>
        <time>2017-02-08T10:21:29Z</time>
      </trkpt>
      <trkpt lat="47.11696" lon="5.45521">
        <ele>265</ele>
        <time>2017-02-08T10:21:35Z</time>
      </trkpt>
      <trkpt lat="47.11692" lon="5.45518">
        <ele>266</ele>
        <time>2017-02-08T10:21:38Z</time>
      </trkpt>
      <trkpt lat="47.11682" lon="5.45515">
        <ele>265</ele>
        <time>2017-02-08T10:21:47Z</time>
      </trkpt>
      <trkpt lat="47.11677" lon="5.45514">
        <ele>265</ele>
        <time>2017-02-08T10:21:52Z</time>
      </trkpt>
      <trkpt lat="47.11669" lon="5.45506">
        <ele>265</ele>
        <time>2017-02-08T10:22:00Z</time>
      </trkpt>
      <trkpt lat="47.11664" lon="5.45502">
        <ele>265</ele>
        <time>2017-02-08T10:22:05Z</time>
      </trkpt>
      <trkpt lat="47.11646" lon="5.45492">
        <ele>264</ele>
        <time>2017-02-08T10:22:24Z</time>
      </trkpt>
      <trkpt lat="47.11641" lon="5.45491">
        <ele>264</ele>
        <time>2017-02-08T10:22:30Z</time>
      </trkpt>
      <trkpt lat="47.11631" lon="5.45487">
        <ele>264</ele>
        <time>2017-02-08T10:22:39Z</time>
      </trkpt>
      <trkpt lat="47.11621" lon="5.45481">
        <ele>263</ele>
        <time>2017-02-08T10:22:48Z</time>
      </trkpt>
      <trkpt lat="47.11603" lon="5.45472">
        <ele>262</ele>
        <time>2017-02-08T10:23:05Z</time>
      </trkpt>
      <trkpt lat="47.11587" lon="5.45466">
        <ele>263</ele>
        <time>2017-02-08T10:23:18Z</time>
      </trkpt>
      <trkpt lat="47.11583" lon="5.45463">
        <ele>264</ele>
        <time>2017-02-08T10:23:22Z</time>
      </trkpt>
      <trkpt lat="47.11559" lon="5.45461">
        <ele>264</ele>
        <time>2017-02-08T10:23:43Z</time>
      </trkpt>
      <trkpt lat="47.11544" lon="5.45464">
        <ele>262</ele>
        <time>2017-02-08T10:23:57Z</time>
      </trkpt>
      <trkpt lat="47.1154" lon="5.45467">
        <ele>262</ele>
        <time>2017-02-08T10:24:02Z</time>
      </trkpt>
      <trkpt lat="47.1153" lon="5.45469">
        <ele>262</ele>
        <time>2017-02-08T10:24:11Z</time>
      </trkpt>
      <trkpt lat="47.11525" lon="5.45471">
        <ele>262</ele>
        <time>2017-02-08T10:24:15Z</time>
      </trkpt>
      <trkpt lat="47.11516" lon="5.45474">
        <ele>264</ele>
        <time>2017-02-08T10:24:25Z</time>
      </trkpt>
      <trkpt lat="47.11512" lon="5.45477">
        <ele>264</ele>
        <time>2017-02-08T10:24:30Z</time>
      </trkpt>
      <trkpt lat="47.115" lon="5.45488">
        <ele>265</ele>
        <time>2017-02-08T10:24:42Z</time>
      </trkpt>
      <trkpt lat="47.11488" lon="5.45501">
        <ele>265</ele>
        <time>2017-02-08T10:24:55Z</time>
      </trkpt>
      <trkpt lat="47.11485" lon="5.45507">
        <ele>265</ele>
        <time>2017-02-08T10:24:59Z</time>
      </trkpt>
      <trkpt lat="47.11482" lon="5.45511">
        <ele>266</ele>
        <time>2017-02-08T10:25:03Z</time>
      </trkpt>
      <trkpt lat="47.11473" lon="5.45519">
        <ele>268</ele>
        <time>2017-02-08T10:25:13Z</time>
      </trkpt>
      <trkpt lat="47.11455" lon="5.45537">
        <ele>269</ele>
        <time>2017-02-08T10:25:30Z</time>
      </trkpt>
      <trkpt lat="47.11448" lon="5.45546">
        <ele>269</ele>
        <time>2017-02-08T10:25:39Z</time>
      </trkpt>
      <trkpt lat="47.11443" lon="5.4555">
        <ele>269</ele>
        <time>2017-02-08T10:25:44Z</time>
      </trkpt>
      <trkpt lat="47.11435" lon="5.4556">
        <ele>270</ele>
        <time>2017-02-08T10:25:53Z</time>
      </trkpt>
      <trkpt lat="47.11432" lon="5.45564">
        <ele>269</ele>
        <time>2017-02-08T10:25:57Z</time>
      </trkpt>
      <trkpt lat="47.11415" lon="5.45582">
        <ele>271</ele>
        <time>2017-02-08T10:26:16Z</time>
      </trkpt>
      <trkpt lat="47.11413" lon="5.45588">
        <ele>272</ele>
        <time>2017-02-08T10:26:20Z</time>
      </trkpt>
      <trkpt lat="47.11409" lon="5.45592">
        <ele>271</ele>
        <time>2017-02-08T10:26:24Z</time>
      </trkpt>
      <trkpt lat="47.11405" lon="5.45594">
        <ele>271</ele>
        <time>2017-02-08T10:26:28Z</time>
      </trkpt>
      <trkpt lat="47.114" lon="5.45595">
        <ele>271</ele>
        <time>2017-02-08T10:26:33Z</time>
      </trkpt>
      <trkpt lat="47.11396" lon="5.45598">
        <ele>271</ele>
        <time>2017-02-08T10:26:37Z</time>
      </trkpt>
      <trkpt lat="47.11391" lon="5.45602">
        <ele>271</ele>
        <time>2017-02-08T10:26:42Z</time>
      </trkpt>
      <trkpt lat="47.11387" lon="5.45607">
        <ele>271</ele>
        <time>2017-02-08T10:26:47Z</time>
      </trkpt>
      <trkpt lat="47.11379" lon="5.45616">
        <ele>270</ele>
        <time>2017-02-08T10:26:56Z</time>
      </trkpt>
      <trkpt lat="47.11375" lon="5.4562">
        <ele>270</ele>
        <time>2017-02-08T10:27:00Z</time>
      </trkpt>
      <trkpt lat="47.11371" lon="5.45623">
        <ele>271</ele>
        <time>2017-02-08T10:27:04Z</time>
      </trkpt>
      <trkpt lat="47.11358" lon="5.45633">
        <ele>272</ele>
        <time>2017-02-08T10:27:16Z</time>
      </trkpt>
      <trkpt lat="47.11354" lon="5.45634">
        <ele>272</ele>
        <time>2017-02-08T10:27:20Z</time>
      </trkpt>
      <trkpt lat="47.11349" lon="5.45636">
        <ele>271</ele>
        <time>2017-02-08T10:27:25Z</time>
      </trkpt>
      <trkpt lat="47.11344" lon="5.45638">
        <ele>272</ele>
        <time>2017-02-08T10:27:31Z</time>
      </trkpt>
      <trkpt lat="47.1134" lon="5.45642">
        <ele>271</ele>
        <time>2017-02-08T10:27:36Z</time>
      </trkpt>
      <trkpt lat="47.11335" lon="5.45655">
        <ele>270</ele>
        <time>2017-02-08T10:27:47Z</time>
      </trkpt>
      <trkpt lat="47.11336" lon="5.45662">
        <ele>269</ele>
        <time>2017-02-08T10:27:52Z</time>
      </trkpt>
      <trkpt lat="47.1134" lon="5.45675">
        <ele>267</ele>
        <time>2017-02-08T10:28:00Z</time>
      </trkpt>
      <trkpt lat="47.11352" lon="5.45688">
        <ele>265</ele>
        <time>2017-02-08T10:28:14Z</time>
      </trkpt>
      <trkpt lat="47.11353" lon="5.45695">
        <ele>265</ele>
        <time>2017-02-08T10:28:20Z</time>
      </trkpt>
      <trkpt lat="47.1135" lon="5.45709">
        <ele>265</ele>
        <time>2017-02-08T10:28:28Z</time>
      </trkpt>
      <trkpt lat="47.11344" lon="5.45719">
        <ele>264</ele>
        <time>2017-02-08T10:28:37Z</time>
      </trkpt>
      <trkpt lat="47.11342" lon="5.45725">
        <ele>264</ele>
        <time>2017-02-08T10:28:44Z</time>
      </trkpt>
    </trkseg>
  </trk>
</gpx>